^^
B2 Weather Station Historical Data
Daily Summary for December 27, 2017 Units:  Both    English   Metric
« Previous Day
Next Day »
Daily Weekly Monthly Yearly Custom
  High: Low: Average:
Temperature: 4.7 °F /  -15.2 °C -6.7 °F /  -21.5 °C -1.2 °F /  -18.4 °C
Dew Point: -4.0 °F /  -20 °C -11.3 °F /  -24.1 °C -7.3 °F /  -21.8 °C
Humidity: 83 % 63 % 75 %
Wind Speed: 11.5 mph /  18.5 km/h - 5.2 mph /  8.4 km/h
Wind Gust: 11.5 mph /  18.5 km/h - -
Wind:- - WNW
Pressure: 30.86 in /  1044.9 hPa 30.73 in /  1040.5 hPa -
Precipitation: 0.00 in /  0 mm    
Historical Graphs
 
 
Tabular Data for December 27, 2017
Time Temperature Dew Point Pressure Wind Wind Speed Wind Gust Humidity Rainfall Rate (Hourly) solar Conditions
00:00 -1.2 °F /  -18.4 °C -6.9 °F /  -21.6 °C 30.74 in /  1040.9 hPa WNW 9.2 mph /  14.8 km/h 9.2 mph /  14.8 km/h 76 % 0.00 in /  0 mm 0.0 W/m2 CLR
00:02 -1.3 °F /  -18.5 °C -7.0 °F /  -21.7 °C 30.74 in /  1040.9 hPa WNW 8.1 mph /  13 km/h 8.1 mph /  13 km/h 76 % 0.00 in /  0 mm 0.0 W/m2 CLR
00:07 -1.3 °F /  -18.5 °C -7.0 °F /  -21.7 °C 30.74 in /  1040.9 hPa WNW 5.8 mph /  9.3 km/h 5.8 mph /  9.3 km/h 76 % 0.00 in /  0 mm 0.0 W/m2 CLR
00:09 -1.3 °F /  -18.5 °C -7.0 °F /  -21.7 °C 30.74 in /  1040.9 hPa WNW 5.8 mph /  9.3 km/h 5.8 mph /  9.3 km/h 76 % 0.00 in /  0 mm 0.0 W/m2 CLR
00:14 -1.3 °F /  -18.5 °C -7.0 °F /  -21.7 °C 30.74 in /  1040.9 hPa WNW 4.6 mph /  7.4 km/h 4.6 mph /  7.4 km/h 76 % 0.00 in /  0 mm 0.0 W/m2 CLR
00:18 -1.4 °F /  -18.6 °C -7.1 °F /  -21.7 °C 30.73 in /  1040.5 hPa WNW 6.9 mph /  11.1 km/h 6.9 mph /  11.1 km/h 76 % 0.00 in /  0 mm 0.0 W/m2 CLR
00:19 -1.5 °F /  -18.6 °C -7.2 °F /  -21.8 °C 30.73 in /  1040.5 hPa NW 5.8 mph /  9.3 km/h 5.8 mph /  9.3 km/h 76 % 0.00 in /  0 mm 0.0 W/m2 CLR
00:24 -1.7 °F /  -18.7 °C -7.4 °F /  -21.9 °C 30.73 in /  1040.5 hPa WNW 6.9 mph /  11.1 km/h 6.9 mph /  11.1 km/h 76 % 0.00 in /  0 mm 0.0 W/m2 CLR
00:25 -1.7 °F /  -18.7 °C -7.4 °F /  -21.9 °C 30.73 in /  1040.5 hPa WNW 8.1 mph /  13 km/h 8.1 mph /  13 km/h 76 % 0.00 in /  0 mm 0.0 W/m2 CLR
00:30 -1.8 °F /  -18.8 °C -7.5 °F /  -21.9 °C 30.73 in /  1040.5 hPa WNW 8.1 mph /  13 km/h 8.1 mph /  13 km/h 76 % 0.00 in /  0 mm 0.0 W/m2 CLR
00:35 -1.9 °F /  -18.8 °C -7.6 °F /  -22 °C 30.73 in /  1040.5 hPa WNW 5.8 mph /  9.3 km/h 5.8 mph /  9.3 km/h 76 % 0.00 in /  0 mm 0.0 W/m2 CLR
00:36 -1.8 °F /  -18.8 °C -7.5 °F /  -21.9 °C 30.73 in /  1040.5 hPa WNW 9.0 mph /  14.5 km/h 9.0 mph /  14.5 km/h 76 % 0.00 in /  0 mm 0.0 W/m2 CLR
00:41 -1.9 °F /  -18.8 °C -7.6 °F /  -22 °C 30.73 in /  1040.5 hPa WNW 8.1 mph /  13 km/h 8.1 mph /  13 km/h 76 % 0.00 in /  0 mm 0.0 W/m2 CLR
00:46 -1.9 °F /  -18.8 °C -7.3 °F /  -21.8 °C 30.74 in /  1040.9 hPa WNW 6.9 mph /  11.1 km/h 6.9 mph /  11.1 km/h 77 % 0.00 in /  0 mm 0.0 W/m2 CLR
00:47 -1.9 °F /  -18.8 °C -7.3 °F /  -21.8 °C 30.74 in /  1040.9 hPa WNW 6.9 mph /  11.1 km/h 6.9 mph /  11.1 km/h 77 % 0.00 in /  0 mm 0.0 W/m2 CLR
00:52 -2.0 °F /  -18.9 °C -7.4 °F /  -21.9 °C 30.74 in /  1040.9 hPa WNW 3.5 mph /  5.6 km/h 3.5 mph /  5.6 km/h 77 % 0.00 in /  0 mm 0.0 W/m2 CLR
00:53 -2.0 °F /  -18.9 °C -7.4 °F /  -21.9 °C 30.74 in /  1040.9 hPa WNW 7.0 mph /  11.3 km/h 7.0 mph /  11.3 km/h 77 % 0.00 in /  0 mm 0.0 W/m2 CLR
00:55 -2.0 °F /  -18.9 °C -7.4 °F /  -21.9 °C 30.74 in /  1040.9 hPa WNW 6.9 mph /  11.1 km/h 6.9 mph /  11.1 km/h 77 % 0.00 in /  0 mm 0.0 W/m2 CLR
00:58 -2.0 °F /  -18.9 °C -7.4 °F /  -21.9 °C 30.74 in /  1040.9 hPa WNW 6.9 mph /  11.1 km/h 6.9 mph /  11.1 km/h 77 % 0.00 in /  0 mm 0.0 W/m2 CLR
01:00 -2.1 °F /  -18.9 °C -7.5 °F /  -21.9 °C 30.74 in /  1040.9 hPa WNW 6.9 mph /  11.1 km/h 6.9 mph /  11.1 km/h 77 % 0.00 in /  0 mm 0.0 W/m2 CLR
01:03 -2.1 °F /  -18.9 °C -7.5 °F /  -21.9 °C 30.74 in /  1040.9 hPa WNW 5.8 mph /  9.3 km/h 5.8 mph /  9.3 km/h 77 % 0.00 in /  0 mm 0.0 W/m2 CLR
01:08 -2.2 °F /  -19 °C -7.6 °F /  -22 °C 30.74 in /  1040.9 hPa WNW 6.9 mph /  11.1 km/h 6.9 mph /  11.1 km/h 77 % 0.00 in /  0 mm 0.0 W/m2 CLR
01:09 -2.2 °F /  -19 °C -7.6 °F /  -22 °C 30.74 in /  1040.9 hPa WNW 5.8 mph /  9.3 km/h 5.8 mph /  9.3 km/h 77 % 0.00 in /  0 mm 0.0 W/m2 CLR
01:10 -2.3 °F /  -19.1 °C -7.7 °F /  -22.1 °C 30.74 in /  1040.9 hPa WNW 5.0 mph /  8 km/h 5.0 mph /  8 km/h 77 % 0.00 in /  0 mm 0.0 W/m2 CLR
01:14 -2.3 °F /  -19.1 °C -7.7 °F /  -22.1 °C 30.74 in /  1040.9 hPa WNW 6.9 mph /  11.1 km/h 6.9 mph /  11.1 km/h 77 % 0.00 in /  0 mm 0.0 W/m2 CLR
01:15 -2.3 °F /  -19.1 °C -7.7 °F /  -22.1 °C 30.74 in /  1040.9 hPa WNW 5.8 mph /  9.3 km/h 5.8 mph /  9.3 km/h 77 % 0.00 in /  0 mm 0.0 W/m2 CLR
01:20 -2.3 °F /  -19.1 °C -7.7 °F /  -22.1 °C 30.74 in /  1040.9 hPa WNW 9.2 mph /  14.8 km/h 9.2 mph /  14.8 km/h 77 % 0.00 in /  0 mm 0.0 W/m2 CLR
01:21 -2.3 °F /  -19.1 °C -7.7 °F /  -22.1 °C 30.74 in /  1040.9 hPa WNW 9.2 mph /  14.8 km/h 9.2 mph /  14.8 km/h 77 % 0.00 in /  0 mm 0.0 W/m2 CLR
01:26 -2.3 °F /  -19.1 °C -7.7 °F /  -22.1 °C 30.74 in /  1040.9 hPa WNW 9.2 mph /  14.8 km/h 9.2 mph /  14.8 km/h 77 % 0.00 in /  0 mm 0.0 W/m2 CLR
01:28 -2.4 °F /  -19.1 °C -7.8 °F /  -22.1 °C 30.74 in /  1040.9 hPa NW 6.9 mph /  11.1 km/h 6.9 mph /  11.1 km/h 77 % 0.00 in /  0 mm 0.0 W/m2 CLR
01:33 -2.3 °F /  -19.1 °C -7.5 °F /  -21.9 °C 30.74 in /  1040.9 hPa NW 6.0 mph /  9.7 km/h 6.0 mph /  9.7 km/h 78 % 0.00 in /  0 mm 0.0 W/m2 CLR
01:38 -2.3 °F /  -19.1 °C -7.7 °F /  -22.1 °C 30.74 in /  1040.9 hPa WNW 6.9 mph /  11.1 km/h 6.9 mph /  11.1 km/h 77 % 0.00 in /  0 mm 0.0 W/m2 CLR
01:43 -2.4 °F /  -19.1 °C -7.6 °F /  -22 °C 30.75 in /  1041.2 hPa WNW 4.6 mph /  7.4 km/h 4.6 mph /  7.4 km/h 78 % 0.00 in /  0 mm 0.0 W/m2 CLR
01:44 -2.4 °F /  -19.1 °C -7.8 °F /  -22.1 °C 30.74 in /  1040.9 hPa WNW 4.0 mph /  6.4 km/h 4.0 mph /  6.4 km/h 77 % 0.00 in /  0 mm 0.0 W/m2 CLR
01:49 -2.6 °F /  -19.2 °C -7.8 °F /  -22.1 °C 30.74 in /  1040.9 hPa NW 5.8 mph /  9.3 km/h 5.8 mph /  9.3 km/h 78 % 0.00 in /  0 mm 0.0 W/m2 CLR
01:54 -2.7 °F /  -19.3 °C -7.9 °F /  -22.2 °C 30.75 in /  1041.2 hPa WNW 3.5 mph /  5.6 km/h 3.7 mph /  6 km/h 78 % 0.00 in /  0 mm 0.0 W/m2 CLR
01:55 -2.8 °F /  -19.3 °C -8.0 °F /  -22.2 °C 30.75 in /  1041.2 hPa WNW 6.0 mph /  9.7 km/h 6.0 mph /  9.7 km/h 78 % 0.00 in /  0 mm 0.0 W/m2 CLR
02:00 -2.9 °F /  -19.4 °C -8.1 °F /  -22.3 °C 30.75 in /  1041.2 hPa WNW 3.5 mph /  5.6 km/h 3.5 mph /  5.6 km/h 78 % 0.00 in /  0 mm 0.0 W/m2 CLR
02:01 -2.9 °F /  -19.4 °C -8.1 °F /  -22.3 °C 30.75 in /  1041.2 hPa WNW 4.6 mph /  7.4 km/h 4.6 mph /  7.4 km/h 78 % 0.00 in /  0 mm 0.0 W/m2 CLR
02:06 -3.0 °F /  -19.4 °C -8.2 °F /  -22.3 °C 30.75 in /  1041.2 hPa WNW 5.8 mph /  9.3 km/h 5.8 mph /  9.3 km/h 78 % 0.00 in /  0 mm 0.0 W/m2 CLR
02:07 -3.1 °F /  -19.5 °C -8.3 °F /  -22.4 °C 30.75 in /  1041.2 hPa NW 4.0 mph /  6.4 km/h 4.0 mph /  6.4 km/h 78 % 0.00 in /  0 mm 0.0 W/m2 CLR
02:13 -3.2 °F /  -19.6 °C -8.1 °F /  -22.3 °C 30.75 in /  1041.2 hPa NW 4.0 mph /  6.4 km/h 4.0 mph /  6.4 km/h 79 % 0.00 in /  0 mm 0.0 W/m2 CLR
02:18 -3.3 °F /  -19.6 °C -8.2 °F /  -22.3 °C 30.75 in /  1041.2 hPa WNW 6.9 mph /  11.1 km/h 6.9 mph /  11.1 km/h 79 % 0.00 in /  0 mm 0.0 W/m2 CLR
02:20 -3.3 °F /  -19.6 °C -8.2 °F /  -22.3 °C 30.75 in /  1041.2 hPa WNW 5.8 mph /  9.3 km/h 5.8 mph /  9.3 km/h 79 % 0.00 in /  0 mm 0.0 W/m2 CLR
02:25 -3.4 °F /  -19.7 °C -8.3 °F /  -22.4 °C 30.75 in /  1041.2 hPa WNW 4.0 mph /  6.4 km/h 4.0 mph /  6.4 km/h 79 % 0.00 in /  0 mm 0.0 W/m2 CLR
02:26 -3.4 °F /  -19.7 °C -8.3 °F /  -22.4 °C 30.75 in /  1041.2 hPa WNW 4.0 mph /  6.4 km/h 4.0 mph /  6.4 km/h 79 % 0.00 in /  0 mm 0.0 W/m2 CLR
02:31 -3.5 °F /  -19.7 °C -8.4 °F /  -22.4 °C 30.75 in /  1041.2 hPa WNW 5.8 mph /  9.3 km/h 5.8 mph /  9.3 km/h 79 % 0.00 in /  0 mm 0.0 W/m2 CLR
02:36 -3.5 °F /  -19.7 °C -8.4 °F /  -22.4 °C 30.75 in /  1041.2 hPa WNW 4.6 mph /  7.4 km/h 4.6 mph /  7.4 km/h 79 % 0.00 in /  0 mm 0.0 W/m2 CLR
02:39 -3.5 °F /  -19.7 °C -8.4 °F /  -22.4 °C 30.75 in /  1041.2 hPa WNW 6.9 mph /  11.1 km/h 6.9 mph /  11.1 km/h 79 % 0.00 in /  0 mm 0.0 W/m2 CLR
02:44 -3.5 °F /  -19.7 °C -8.4 °F /  -22.4 °C 30.75 in /  1041.2 hPa WNW 6.9 mph /  11.1 km/h 6.9 mph /  11.1 km/h 79 % 0.00 in /  0 mm 0.0 W/m2 CLR
02:45 -3.5 °F /  -19.7 °C -8.4 °F /  -22.4 °C 30.75 in /  1041.2 hPa WNW 5.8 mph /  9.3 km/h 5.8 mph /  9.3 km/h 79 % 0.00 in /  0 mm 0.0 W/m2 CLR
02:47 -3.5 °F /  -19.7 °C -8.4 °F /  -22.4 °C 30.75 in /  1041.2 hPa WNW 6.9 mph /  11.1 km/h 6.9 mph /  11.1 km/h 79 % 0.00 in /  0 mm 0.0 W/m2 CLR
02:52 -3.5 °F /  -19.7 °C -8.4 °F /  -22.4 °C 30.75 in /  1041.2 hPa WNW 7.0 mph /  11.3 km/h 7.0 mph /  11.3 km/h 79 % 0.00 in /  0 mm 0.0 W/m2 CLR
02:53 -3.5 °F /  -19.7 °C -8.4 °F /  -22.4 °C 30.75 in /  1041.2 hPa NW 6.9 mph /  11.1 km/h 6.9 mph /  11.1 km/h 79 % 0.00 in /  0 mm 0.0 W/m2 CLR
02:57 -3.4 °F /  -19.7 °C -8.3 °F /  -22.4 °C 30.75 in /  1041.2 hPa WNW 5.8 mph /  9.3 km/h 5.8 mph /  9.3 km/h 79 % 0.00 in /  0 mm 0.0 W/m2 CLR
02:59 -3.4 °F /  -19.7 °C -8.3 °F /  -22.4 °C 30.75 in /  1041.2 hPa WNW 3.5 mph /  5.6 km/h 3.5 mph /  5.6 km/h 79 % 0.00 in /  0 mm 0.0 W/m2 CLR
03:04 -3.4 °F /  -19.7 °C -8.3 °F /  -22.4 °C 30.75 in /  1041.2 hPa WNW 4.6 mph /  7.4 km/h 4.6 mph /  7.4 km/h 79 % 0.00 in /  0 mm 0.0 W/m2 CLR
03:05 -3.4 °F /  -19.7 °C -8.3 °F /  -22.4 °C 30.75 in /  1041.2 hPa WNW 4.6 mph /  7.4 km/h 4.6 mph /  7.4 km/h 79 % 0.00 in /  0 mm 0.0 W/m2 CLR
03:06 -3.4 °F /  -19.7 °C -8.5 °F /  -22.5 °C 30.75 in /  1041.2 hPa WNW 3.5 mph /  5.6 km/h 3.5 mph /  5.6 km/h 78 % 0.00 in /  0 mm 0.0 W/m2 CLR
03:11 -3.5 °F /  -19.7 °C -8.6 °F /  -22.6 °C 30.75 in /  1041.2 hPa NW 4.6 mph /  7.4 km/h 4.6 mph /  7.4 km/h 78 % 0.00 in /  0 mm 0.0 W/m2 CLR
03:16 -3.6 °F /  -19.8 °C -8.7 °F /  -22.6 °C 30.75 in /  1041.2 hPa WNW 8.1 mph /  13 km/h 8.1 mph /  13 km/h 78 % 0.00 in /  0 mm 0.0 W/m2 CLR
03:17 -3.6 °F /  -19.8 °C -8.7 °F /  -22.6 °C 30.75 in /  1041.2 hPa WNW 8.1 mph /  13 km/h 8.1 mph /  13 km/h 78 % 0.00 in /  0 mm 0.0 W/m2 CLR
03:18 -3.6 °F /  -19.8 °C -8.7 °F /  -22.6 °C 30.75 in /  1041.2 hPa WNW 5.8 mph /  9.3 km/h 5.8 mph /  9.3 km/h 78 % 0.00 in /  0 mm 0.0 W/m2 CLR
03:22 -3.8 °F /  -19.9 °C -8.9 °F /  -22.7 °C 30.75 in /  1041.2 hPa WNW 5.8 mph /  9.3 km/h 5.8 mph /  9.3 km/h 78 % 0.00 in /  0 mm 0.0 W/m2 CLR
03:27 -3.9 °F /  -19.9 °C -9.0 °F /  -22.8 °C 30.75 in /  1041.2 hPa NW 6.9 mph /  11.1 km/h 6.9 mph /  11.1 km/h 78 % 0.00 in /  0 mm 0.0 W/m2 CLR
03:28 -3.9 °F /  -19.9 °C -9.0 °F /  -22.8 °C 30.75 in /  1041.2 hPa NW 6.9 mph /  11.1 km/h 6.9 mph /  11.1 km/h 78 % 0.00 in /  0 mm 0.0 W/m2 CLR
03:29 -3.9 °F /  -19.9 °C -9.0 °F /  -22.8 °C 30.75 in /  1041.2 hPa WNW 8.1 mph /  13 km/h 8.1 mph /  13 km/h 78 % 0.00 in /  0 mm 0.0 W/m2 CLR
03:34 -4.0 °F /  -20 °C -9.1 °F /  -22.8 °C 30.76 in /  1041.5 hPa WNW 8.1 mph /  13 km/h 8.1 mph /  13 km/h 78 % 0.00 in /  0 mm 0.0 W/m2 CLR
03:36 -4.0 °F /  -20 °C -9.1 °F /  -22.8 °C 30.76 in /  1041.5 hPa WNW 5.8 mph /  9.3 km/h 5.8 mph /  9.3 km/h 78 % 0.00 in /  0 mm 0.0 W/m2 CLR
03:39 -4.1 °F /  -20.1 °C -9.2 °F /  -22.9 °C 30.76 in /  1041.5 hPa WNW 6.9 mph /  11.1 km/h 6.9 mph /  11.1 km/h 78 % 0.00 in /  0 mm 0.0 W/m2 CLR
03:44 -4.2 °F /  -20.1 °C -9.3 °F /  -22.9 °C 30.75 in /  1041.2 hPa WNW 5.8 mph /  9.3 km/h 5.8 mph /  9.3 km/h 78 % 0.00 in /  0 mm 0.0 W/m2 CLR
03:45 -4.3 °F /  -20.2 °C -9.4 °F /  -23 °C 30.75 in /  1041.2 hPa WNW 5.8 mph /  9.3 km/h 5.8 mph /  9.3 km/h 78 % 0.00 in /  0 mm 0.0 W/m2 CLR
03:50 -4.4 °F /  -20.2 °C -9.5 °F /  -23.1 °C 30.75 in /  1041.2 hPa WNW 5.8 mph /  9.3 km/h 5.8 mph /  9.3 km/h 78 % 0.00 in /  0 mm 0.0 W/m2 CLR
03:54 -4.4 °F /  -20.2 °C -9.5 °F /  -23.1 °C 30.75 in /  1041.2 hPa NW 3.5 mph /  5.6 km/h 3.5 mph /  5.6 km/h 78 % 0.00 in /  0 mm 0.0 W/m2 CLR
03:55 -4.4 °F /  -20.2 °C -9.5 °F /  -23.1 °C 30.75 in /  1041.2 hPa NW 3.5 mph /  5.6 km/h 3.5 mph /  5.6 km/h 78 % 0.00 in /  0 mm 0.0 W/m2 CLR
04:00 -4.6 °F /  -20.3 °C -9.7 °F /  -23.2 °C 30.75 in /  1041.2 hPa NW 6.9 mph /  11.1 km/h 6.9 mph /  11.1 km/h 78 % 0.00 in /  0 mm 0.0 W/m2 CLR
04:01 -4.6 °F /  -20.3 °C -9.7 °F /  -23.2 °C 30.75 in /  1041.2 hPa WNW 5.8 mph /  9.3 km/h 5.8 mph /  9.3 km/h 78 % 0.00 in /  0 mm 0.0 W/m2 CLR
04:06 -4.7 °F /  -20.4 °C -9.8 °F /  -23.2 °C 30.75 in /  1041.2 hPa WNW 4.0 mph /  6.4 km/h 4.0 mph /  6.4 km/h 78 % 0.00 in /  0 mm 0.0 W/m2 CLR
04:08 -4.7 °F /  -20.4 °C -9.8 °F /  -23.2 °C 30.76 in /  1041.5 hPa WNW 4.0 mph /  6.4 km/h 4.0 mph /  6.4 km/h 78 % 0.00 in /  0 mm 0.0 W/m2 CLR
04:13 -4.9 °F /  -20.5 °C -10.0 °F /  -23.3 °C 30.76 in /  1041.5 hPa WNW 5.8 mph /  9.3 km/h 5.8 mph /  9.3 km/h 78 % 0.00 in /  0 mm 0.0 W/m2 CLR
04:14 -4.9 °F /  -20.5 °C -10.0 °F /  -23.3 °C 30.76 in /  1041.5 hPa WNW 5.8 mph /  9.3 km/h 5.8 mph /  9.3 km/h 78 % 0.00 in /  0 mm 0.0 W/m2 CLR
04:17 -4.9 °F /  -20.5 °C -9.7 °F /  -23.2 °C 30.76 in /  1041.5 hPa WNW 6.9 mph /  11.1 km/h 6.9 mph /  11.1 km/h 79 % 0.00 in /  0 mm 0.0 W/m2 CLR
04:22 -5.1 °F /  -20.6 °C -9.9 °F /  -23.3 °C 30.76 in /  1041.5 hPa WNW 3.5 mph /  5.6 km/h 3.5 mph /  5.6 km/h 79 % 0.00 in /  0 mm 0.0 W/m2 CLR
04:23 -5.1 °F /  -20.6 °C -9.9 °F /  -23.3 °C 30.76 in /  1041.5 hPa WNW 5.0 mph /  8 km/h 5.0 mph /  8 km/h 79 % 0.00 in /  0 mm 0.0 W/m2 CLR
04:28 -5.2 °F /  -20.7 °C -10.0 °F /  -23.3 °C 30.76 in /  1041.5 hPa WNW 5.8 mph /  9.3 km/h 5.8 mph /  9.3 km/h 79 % 0.00 in /  0 mm 0.0 W/m2 CLR
04:32 -5.3 °F /  -20.7 °C -10.1 °F /  -23.4 °C 30.76 in /  1041.5 hPa WNW 4.6 mph /  7.4 km/h 4.6 mph /  7.4 km/h 79 % 0.00 in /  0 mm 0.0 W/m2 CLR
04:33 -5.3 °F /  -20.7 °C -10.1 °F /  -23.4 °C 30.76 in /  1041.5 hPa WNW 6.9 mph /  11.1 km/h 6.9 mph /  11.1 km/h 79 % 0.00 in /  0 mm 0.0 W/m2 CLR
04:38 -5.3 °F /  -20.7 °C -10.1 °F /  -23.4 °C 30.76 in /  1041.5 hPa WNW 5.8 mph /  9.3 km/h 5.8 mph /  9.3 km/h 79 % 0.00 in /  0 mm 0.0 W/m2 CLR
04:41 -5.4 °F /  -20.8 °C -10.2 °F /  -23.4 °C 30.76 in /  1041.5 hPa WNW 5.8 mph /  9.3 km/h 5.8 mph /  9.3 km/h 79 % 0.00 in /  0 mm 0.0 W/m2 CLR
04:44 -5.4 °F /  -20.8 °C -10.2 °F /  -23.4 °C 30.76 in /  1041.5 hPa WNW 5.8 mph /  9.3 km/h 5.8 mph /  9.3 km/h 79 % 0.00 in /  0 mm 0.0 W/m2 CLR
04:49 -5.4 °F /  -20.8 °C -10.2 °F /  -23.4 °C 30.77 in /  1041.9 hPa WNW 6.9 mph /  11.1 km/h 6.9 mph /  11.1 km/h 79 % 0.00 in /  0 mm 0.0 W/m2 CLR
04:53 -5.5 °F /  -20.8 °C -10.3 °F /  -23.5 °C 30.77 in /  1041.9 hPa WNW 8.1 mph /  13 km/h 8.1 mph /  13 km/h 79 % 0.00 in /  0 mm 0.0 W/m2 CLR
04:56 -5.5 °F /  -20.8 °C -10.3 °F /  -23.5 °C 30.77 in /  1041.9 hPa WNW 6.9 mph /  11.1 km/h 6.9 mph /  11.1 km/h 79 % 0.00 in /  0 mm 0.0 W/m2 CLR
05:01 -5.5 °F /  -20.8 °C -10.3 °F /  -23.5 °C 30.77 in /  1041.9 hPa WNW 4.6 mph /  7.4 km/h 4.6 mph /  7.4 km/h 79 % 0.00 in /  0 mm 0.0 W/m2 CLR
05:06 -5.5 °F /  -20.8 °C -10.3 °F /  -23.5 °C 30.77 in /  1041.9 hPa WNW 5.8 mph /  9.3 km/h 5.8 mph /  9.3 km/h 79 % 0.00 in /  0 mm 0.0 W/m2 CLR
05:07 -5.5 °F /  -20.8 °C -10.3 °F /  -23.5 °C 30.77 in /  1041.9 hPa WNW 6.9 mph /  11.1 km/h 6.9 mph /  11.1 km/h 79 % 0.00 in /  0 mm 0.0 W/m2 CLR
05:08 -5.6 °F /  -20.9 °C -10.4 °F /  -23.6 °C 30.77 in /  1041.9 hPa WNW 4.6 mph /  7.4 km/h 4.6 mph /  7.4 km/h 79 % 0.00 in /  0 mm 0.0 W/m2 CLR
05:13 -5.7 °F /  -20.9 °C -10.5 °F /  -23.6 °C 30.77 in /  1041.9 hPa West 6.0 mph /  9.7 km/h 6.0 mph /  9.7 km/h 79 % 0.00 in /  0 mm 0.0 W/m2 CLR
05:14 -5.7 °F /  -20.9 °C -10.5 °F /  -23.6 °C 30.77 in /  1041.9 hPa WNW 5.8 mph /  9.3 km/h 5.8 mph /  9.3 km/h 79 % 0.00 in /  0 mm 0.0 W/m2 CLR
05:19 -5.7 °F /  -20.9 °C -10.3 °F /  -23.5 °C 30.77 in /  1041.9 hPa West 6.0 mph /  9.7 km/h 6.0 mph /  9.7 km/h 80 % 0.00 in /  0 mm 0.0 W/m2 CLR
05:20 -5.8 °F /  -21 °C -10.4 °F /  -23.6 °C 30.77 in /  1041.9 hPa WNW 6.9 mph /  11.1 km/h 6.9 mph /  11.1 km/h 80 % 0.00 in /  0 mm 0.0 W/m2 CLR
05:25 -5.8 °F /  -21 °C -10.4 °F /  -23.6 °C 30.77 in /  1041.9 hPa WNW 5.8 mph /  9.3 km/h 5.8 mph /  9.3 km/h 80 % 0.00 in /  0 mm 0.0 W/m2 CLR
05:30 -5.9 °F /  -21.1 °C -10.5 °F /  -23.6 °C 30.77 in /  1041.9 hPa WNW 6.0 mph /  9.7 km/h 6.0 mph /  9.7 km/h 80 % 0.00 in /  0 mm 0.0 W/m2 CLR
05:31 -5.9 °F /  -21.1 °C -10.5 °F /  -23.6 °C 30.78 in /  1042.2 hPa WNW 5.8 mph /  9.3 km/h 5.8 mph /  9.3 km/h 80 % 0.00 in /  0 mm 0.0 W/m2 CLR
05:36 -5.9 °F /  -21.1 °C -10.5 °F /  -23.6 °C 30.78 in /  1042.2 hPa WNW 6.9 mph /  11.1 km/h 6.9 mph /  11.1 km/h 80 % 0.00 in /  0 mm 0.0 W/m2 CLR
05:37 -5.9 °F /  -21.1 °C -10.5 °F /  -23.6 °C 30.77 in /  1041.9 hPa WNW 6.9 mph /  11.1 km/h 6.9 mph /  11.1 km/h 80 % 0.00 in /  0 mm 0.0 W/m2 CLR
05:41 -6.0 °F /  -21.1 °C -10.6 °F /  -23.7 °C 30.77 in /  1041.9 hPa WNW 6.0 mph /  9.7 km/h 6.0 mph /  9.7 km/h 80 % 0.00 in /  0 mm 0.0 W/m2 CLR
05:44 -6.0 °F /  -21.1 °C -10.6 °F /  -23.7 °C 30.78 in /  1042.2 hPa WNW 4.0 mph /  6.4 km/h 4.0 mph /  6.4 km/h 80 % 0.00 in /  0 mm 0.0 W/m2 CLR
05:47 -6.1 °F /  -21.2 °C -10.7 °F /  -23.7 °C 30.78 in /  1042.2 hPa WNW 5.8 mph /  9.3 km/h 5.8 mph /  9.3 km/h 80 % 0.00 in /  0 mm 0.0 W/m2 CLR
05:51 -6.1 °F /  -21.2 °C -10.7 °F /  -23.7 °C 30.78 in /  1042.2 hPa WNW 4.6 mph /  7.4 km/h 4.6 mph /  7.4 km/h 80 % 0.00 in /  0 mm 0.0 W/m2 CLR
05:56 -6.2 °F /  -21.2 °C -10.8 °F /  -23.8 °C 30.78 in /  1042.2 hPa WNW 5.8 mph /  9.3 km/h 5.8 mph /  9.3 km/h 80 % 0.00 in /  0 mm 0.0 W/m2 CLR
06:01 -6.2 °F /  -21.2 °C -10.8 °F /  -23.8 °C 30.78 in /  1042.2 hPa WNW 5.8 mph /  9.3 km/h 5.8 mph /  9.3 km/h 80 % 0.00 in /  0 mm 0.0 W/m2 CLR
06:04 -6.2 °F /  -21.2 °C -10.8 °F /  -23.8 °C 30.78 in /  1042.2 hPa WNW 4.6 mph /  7.4 km/h 4.6 mph /  7.4 km/h 80 % 0.00 in /  0 mm 0.0 W/m2 CLR
06:09 -6.2 °F /  -21.2 °C -10.5 °F /  -23.6 °C 30.79 in /  1042.5 hPa WNW 5.8 mph /  9.3 km/h 5.8 mph /  9.3 km/h 81 % 0.00 in /  0 mm 0.0 W/m2 CLR
06:10 -6.2 °F /  -21.2 °C -10.5 °F /  -23.6 °C 30.79 in /  1042.5 hPa WNW 4.6 mph /  7.4 km/h 4.6 mph /  7.4 km/h 81 % 0.00 in /  0 mm 0.0 W/m2 CLR
06:12 -6.2 °F /  -21.2 °C -10.8 °F /  -23.8 °C 30.79 in /  1042.5 hPa WNW 4.6 mph /  7.4 km/h 4.6 mph /  7.4 km/h 80 % 0.00 in /  0 mm 0.0 W/m2 CLR
06:15 -6.3 °F /  -21.3 °C -10.9 °F /  -23.8 °C 30.79 in /  1042.5 hPa WNW 4.6 mph /  7.4 km/h 4.6 mph /  7.4 km/h 80 % 0.00 in /  0 mm 0.0 W/m2 CLR
06:19 -6.4 °F /  -21.3 °C -11.0 °F /  -23.9 °C 30.79 in /  1042.5 hPa WNW 5.8 mph /  9.3 km/h 5.8 mph /  9.3 km/h 80 % 0.00 in /  0 mm 0.0 W/m2 CLR
06:22 -6.4 °F /  -21.3 °C -11.0 °F /  -23.9 °C 30.79 in /  1042.5 hPa WNW 3.5 mph /  5.6 km/h 3.5 mph /  5.6 km/h 80 % 0.00 in /  0 mm 0.0 W/m2 CLR
06:27 -6.5 °F /  -21.4 °C -11.1 °F /  -23.9 °C 30.79 in /  1042.5 hPa WNW 3.5 mph /  5.6 km/h 3.5 mph /  5.6 km/h 80 % 0.00 in /  0 mm 0.0 W/m2 CLR
06:28 -6.5 °F /  -21.4 °C -11.1 °F /  -23.9 °C 30.79 in /  1042.5 hPa WNW 3.5 mph /  5.6 km/h 3.5 mph /  5.6 km/h 80 % 0.00 in /  0 mm 0.0 W/m2 CLR
06:32 -6.5 °F /  -21.4 °C -11.1 °F /  -23.9 °C 30.80 in /  1042.9 hPa WNW 4.6 mph /  7.4 km/h 4.6 mph /  7.4 km/h 80 % 0.00 in /  0 mm 0.0 W/m2 CLR
06:33 -6.5 °F /  -21.4 °C -11.1 °F /  -23.9 °C 30.80 in /  1042.9 hPa WNW 4.6 mph /  7.4 km/h 4.6 mph /  7.4 km/h 80 % 0.00 in /  0 mm 0.0 W/m2 CLR
06:38 -6.5 °F /  -21.4 °C -11.1 °F /  -23.9 °C 30.80 in /  1042.9 hPa WNW 3.5 mph /  5.6 km/h 3.5 mph /  5.6 km/h 80 % 0.00 in /  0 mm 0.0 W/m2 CLR
06:39 -6.5 °F /  -21.4 °C -11.1 °F /  -23.9 °C 30.80 in /  1042.9 hPa WNW 3.5 mph /  5.6 km/h 3.5 mph /  5.6 km/h 80 % 0.00 in /  0 mm 0.0 W/m2 CLR
06:44 -6.6 °F /  -21.4 °C -11.2 °F /  -24 °C 30.80 in /  1042.9 hPa WNW 3.5 mph /  5.6 km/h 3.5 mph /  5.6 km/h 80 % 0.00 in /  0 mm 0.0 W/m2 CLR
06:45 -6.6 °F /  -21.4 °C -11.2 °F /  -24 °C 30.80 in /  1042.9 hPa WNW 3.5 mph /  5.6 km/h 3.5 mph /  5.6 km/h 80 % 0.00 in /  0 mm 0.0 W/m2 CLR
06:50 -6.7 °F /  -21.5 °C -11.0 °F /  -23.9 °C 30.80 in /  1042.9 hPa WNW 4.6 mph /  7.4 km/h 4.6 mph /  7.4 km/h 81 % 0.00 in /  0 mm 0.0 W/m2 -SN
06:54 -6.7 °F /  -21.5 °C -11.0 °F /  -23.9 °C 30.80 in /  1042.9 hPa WNW 3.5 mph /  5.6 km/h 3.5 mph /  5.6 km/h 81 % 0.00 in /  0 mm 0.0 W/m2 -SN
06:55 -6.7 °F /  -21.5 °C -11.0 °F /  -23.9 °C 30.80 in /  1042.9 hPa WNW 3.5 mph /  5.6 km/h 3.5 mph /  5.6 km/h 81 % 0.00 in /  0 mm 0.0 W/m2 -SN
07:00 -6.7 °F /  -21.5 °C -11.0 °F /  -23.9 °C 30.80 in /  1042.9 hPa WNW 4.6 mph /  7.4 km/h 4.6 mph /  7.4 km/h 81 % 0.00 in /  0 mm 0.0 W/m2 -SN
07:02 -6.7 °F /  -21.5 °C -11.0 °F /  -23.9 °C 30.80 in /  1042.9 hPa West 2.3 mph /  3.7 km/h 2.3 mph /  3.7 km/h 81 % 0.00 in /  0 mm 0.0 W/m2 -SN
07:07 -6.6 °F /  -21.4 °C -10.9 °F /  -23.8 °C 30.80 in /  1042.9 hPa WNW 4.0 mph /  6.4 km/h 4.0 mph /  6.4 km/h 81 % 0.00 in /  0 mm 0.0 W/m2 -SN
07:10 -6.7 °F /  -21.5 °C -11.0 °F /  -23.9 °C 30.80 in /  1042.9 hPa WNW 4.6 mph /  7.4 km/h 4.6 mph /  7.4 km/h 81 % 0.00 in /  0 mm 0.0 W/m2 -SN
07:15 -6.7 °F /  -21.5 °C -11.0 °F /  -23.9 °C 30.80 in /  1042.9 hPa WNW 5.8 mph /  9.3 km/h 5.8 mph /  9.3 km/h 81 % 0.00 in /  0 mm 0.0 W/m2 -SN
07:16 -6.7 °F /  -21.5 °C -11.0 °F /  -23.9 °C 30.80 in /  1042.9 hPa WNW 5.8 mph /  9.3 km/h 5.8 mph /  9.3 km/h 81 % 0.00 in /  0 mm 5.0 W/m2 -SN
07:17 -6.7 °F /  -21.5 °C -11.0 °F /  -23.9 °C 30.80 in /  1042.9 hPa WNW 5.8 mph /  9.3 km/h 5.8 mph /  9.3 km/h 81 % 0.00 in /  0 mm 5.0 W/m2 -SN
07:22 -6.6 °F /  -21.4 °C -10.9 °F /  -23.8 °C 30.81 in /  1043.2 hPa WNW 6.9 mph /  11.1 km/h 6.9 mph /  11.1 km/h 81 % 0.00 in /  0 mm 7.0 W/m2 -SN
07:27 -6.4 °F /  -21.3 °C -10.7 °F /  -23.7 °C 30.80 in /  1042.9 hPa WNW 6.9 mph /  11.1 km/h 6.9 mph /  11.1 km/h 81 % 0.00 in /  0 mm 11.0 W/m2 -SN
07:28 -6.4 °F /  -21.3 °C -10.7 °F /  -23.7 °C 30.80 in /  1042.9 hPa WNW 6.9 mph /  11.1 km/h 6.9 mph /  11.1 km/h 81 % 0.00 in /  0 mm 11.0 W/m2 -SN
07:30 -6.4 °F /  -21.3 °C -10.5 °F /  -23.6 °C 30.80 in /  1042.9 hPa WNW 6.0 mph /  9.7 km/h 6.0 mph /  9.7 km/h 82 % 0.00 in /  0 mm 11.0 W/m2 -SN
07:33 -6.3 °F /  -21.3 °C -10.6 °F /  -23.7 °C 30.81 in /  1043.2 hPa WNW 6.9 mph /  11.1 km/h 6.9 mph /  11.1 km/h 81 % 0.00 in /  0 mm 12.0 W/m2 -SN
07:49 -5.8 °F /  -21 °C -10.1 °F /  -23.4 °C 30.81 in /  1043.2 hPa WNW 6.0 mph /  9.7 km/h 6.0 mph /  9.7 km/h 81 % 0.00 in /  0 mm 39.0 W/m2 CLR
07:51 -5.7 °F /  -20.9 °C -10.0 °F /  -23.3 °C 30.81 in /  1043.2 hPa WNW 5.8 mph /  9.3 km/h 5.8 mph /  9.3 km/h 81 % 0.00 in /  0 mm 42.0 W/m2 CLR
07:54 -5.6 °F /  -20.9 °C -9.9 °F /  -23.3 °C 30.81 in /  1043.2 hPa West 6.9 mph /  11.1 km/h 6.9 mph /  11.1 km/h 81 % 0.00 in /  0 mm 51.0 W/m2 CLR
07:59 -5.4 °F /  -20.8 °C -9.7 °F /  -23.2 °C 30.81 in /  1043.2 hPa WNW 5.8 mph /  9.3 km/h 5.8 mph /  9.3 km/h 81 % 0.00 in /  0 mm 63.0 W/m2 CLR
08:00 -5.4 °F /  -20.8 °C -9.7 °F /  -23.2 °C 30.81 in /  1043.2 hPa West 6.9 mph /  11.1 km/h 6.9 mph /  11.1 km/h 81 % 0.00 in /  0 mm 65.0 W/m2 CLR
08:01 -5.4 °F /  -20.8 °C -9.7 °F /  -23.2 °C 30.81 in /  1043.2 hPa WNW 6.9 mph /  11.1 km/h 6.9 mph /  11.1 km/h 81 % 0.00 in /  0 mm 67.0 W/m2 CLR
08:06 -5.2 °F /  -20.7 °C -9.8 °F /  -23.2 °C 30.81 in /  1043.2 hPa WNW 4.6 mph /  7.4 km/h 4.6 mph /  7.4 km/h 80 % 0.00 in /  0 mm 79.0 W/m2 CLR
08:07 -5.2 °F /  -20.7 °C -9.8 °F /  -23.2 °C 30.81 in /  1043.2 hPa WNW 4.6 mph /  7.4 km/h 4.6 mph /  7.4 km/h 80 % 0.00 in /  0 mm 81.0 W/m2 CLR
08:12 -5.0 °F /  -20.6 °C -9.6 °F /  -23.1 °C 30.81 in /  1043.2 hPa WNW 6.0 mph /  9.7 km/h 6.0 mph /  9.7 km/h 80 % 0.00 in /  0 mm 95.0 W/m2 CLR
08:17 -4.8 °F /  -20.4 °C -9.4 °F /  -23 °C 30.82 in /  1043.6 hPa WNW 4.6 mph /  7.4 km/h 4.9 mph /  7.9 km/h 80 % 0.00 in /  0 mm 109.0 W/m2 -SN
08:18 -4.8 °F /  -20.4 °C -9.4 °F /  -23 °C 30.82 in /  1043.6 hPa WNW 8.1 mph /  13 km/h 8.1 mph /  13 km/h 80 % 0.00 in /  0 mm 111.0 W/m2 -SN
08:23 -4.6 °F /  -20.3 °C -9.5 °F /  -23.1 °C 30.82 in /  1043.6 hPa WNW 6.9 mph /  11.1 km/h 6.9 mph /  11.1 km/h 79 % 0.00 in /  0 mm 127.0 W/m2 -SN
08:26 -4.4 °F /  -20.2 °C -9.3 °F /  -22.9 °C 30.82 in /  1043.6 hPa NW 9.2 mph /  14.8 km/h 9.2 mph /  14.8 km/h 79 % 0.00 in /  0 mm 137.0 W/m2 -SN
08:28 -4.3 °F /  -20.2 °C -9.2 °F /  -22.9 °C 30.82 in /  1043.6 hPa WNW 9.2 mph /  14.8 km/h 9.2 mph /  14.8 km/h 79 % 0.00 in /  0 mm 142.0 W/m2 -SN
08:33 -4.0 °F /  -20 °C -8.9 °F /  -22.7 °C 30.82 in /  1043.6 hPa WNW 9.2 mph /  14.8 km/h 9.2 mph /  14.8 km/h 79 % 0.00 in /  0 mm 156.0 W/m2 -SN
08:34 -3.9 °F /  -19.9 °C -8.8 °F /  -22.7 °C 30.82 in /  1043.6 hPa West 10.4 mph /  16.7 km/h 10.4 mph /  16.7 km/h 79 % 0.00 in /  0 mm 160.0 W/m2 -SN
08:35 -3.9 °F /  -19.9 °C -8.8 °F /  -22.7 °C 30.82 in /  1043.6 hPa NW 6.9 mph /  11.1 km/h 6.9 mph /  11.1 km/h 79 % 0.00 in /  0 mm 162.0 W/m2 -SN
08:40 -3.7 °F /  -19.8 °C -8.8 °F /  -22.7 °C 30.82 in /  1043.6 hPa WNW 5.8 mph /  9.3 km/h 5.8 mph /  9.3 km/h 78 % 0.00 in /  0 mm 178.0 W/m2 -SN
08:41 -3.7 °F /  -19.8 °C -8.8 °F /  -22.7 °C 30.82 in /  1043.6 hPa WNW 5.8 mph /  9.3 km/h 5.8 mph /  9.3 km/h 78 % 0.00 in /  0 mm 178.0 W/m2 -SN
08:44 -3.6 °F /  -19.8 °C -8.7 °F /  -22.6 °C 30.82 in /  1043.6 hPa NW 8.1 mph /  13 km/h 8.1 mph /  13 km/h 78 % 0.00 in /  0 mm 188.0 W/m2 -SN
08:46 -3.6 °F /  -19.8 °C -8.7 °F /  -22.6 °C 30.82 in /  1043.6 hPa NW 9.0 mph /  14.5 km/h 9.0 mph /  14.5 km/h 78 % 0.00 in /  0 mm 195.0 W/m2 -SN
08:50 -3.5 °F /  -19.7 °C -8.9 °F /  -22.7 °C 30.82 in /  1043.6 hPa NW 10.4 mph /  16.7 km/h 10.4 mph /  16.7 km/h 77 % 0.00 in /  0 mm 206.0 W/m2 -SN
08:51 -3.5 °F /  -19.7 °C -8.9 °F /  -22.7 °C 30.82 in /  1043.6 hPa NW 8.1 mph /  13 km/h 8.1 mph /  13 km/h 77 % 0.00 in /  0 mm 211.0 W/m2 -SN
08:56 -3.3 °F /  -19.6 °C -8.7 °F /  -22.6 °C 30.82 in /  1043.6 hPa NW 9.2 mph /  14.8 km/h 9.2 mph /  14.8 km/h 77 % 0.00 in /  0 mm 223.0 W/m2 -SN
08:58 -3.3 °F /  -19.6 °C -8.7 °F /  -22.6 °C 30.82 in /  1043.6 hPa NW 6.9 mph /  11.1 km/h 6.9 mph /  11.1 km/h 77 % 0.00 in /  0 mm 229.0 W/m2 -SN
09:03 -3.2 °F /  -19.6 °C -8.6 °F /  -22.6 °C 30.82 in /  1043.6 hPa WNW 9.2 mph /  14.8 km/h 9.2 mph /  14.8 km/h 77 % 0.00 in /  0 mm 243.0 W/m2 -SN
09:04 -3.2 °F /  -19.6 °C -8.6 °F /  -22.6 °C 30.82 in /  1043.6 hPa NW 9.2 mph /  14.8 km/h 9.2 mph /  14.8 km/h 77 % 0.00 in /  0 mm 244.0 W/m2 -SN
09:05 -3.1 °F /  -19.5 °C -8.5 °F /  -22.5 °C 30.83 in /  1043.9 hPa NW 9.2 mph /  14.8 km/h 9.2 mph /  14.8 km/h 77 % 0.00 in /  0 mm 250.0 W/m2 -SN
09:10 -3.0 °F /  -19.4 °C -8.7 °F /  -22.6 °C 30.83 in /  1043.9 hPa NW 10.4 mph /  16.7 km/h 10.4 mph /  16.7 km/h 76 % 0.00 in /  0 mm 262.0 W/m2 -SN
09:11 -3.0 °F /  -19.4 °C -8.4 °F /  -22.4 °C 30.83 in /  1043.9 hPa NW 10.4 mph /  16.7 km/h 10.4 mph /  16.7 km/h 77 % 0.00 in /  0 mm 262.0 W/m2 -SN
09:13 -2.9 °F /  -19.4 °C -8.6 °F /  -22.6 °C 30.83 in /  1043.9 hPa WNW 8.1 mph /  13 km/h 8.1 mph /  13 km/h 76 % 0.00 in /  0 mm 269.0 W/m2 -SN
09:18 -2.7 °F /  -19.3 °C -8.4 °F /  -22.4 °C 30.83 in /  1043.9 hPa NW 5.8 mph /  9.3 km/h 5.8 mph /  9.3 km/h 76 % 0.00 in /  0 mm 279.0 W/m2 -SN
09:21 -2.6 °F /  -19.2 °C -8.3 °F /  -22.4 °C 30.84 in /  1044.2 hPa NW 8.1 mph /  13 km/h 8.1 mph /  13 km/h 76 % 0.00 in /  0 mm 287.0 W/m2 -SN
09:25 -2.5 °F /  -19.2 °C -8.2 °F /  -22.3 °C 30.84 in /  1044.2 hPa NW 9.2 mph /  14.8 km/h 9.2 mph /  14.8 km/h 76 % 0.00 in /  0 mm 295.0 W/m2 -SN
09:29 -2.4 °F /  -19.1 °C -8.4 °F /  -22.4 °C 30.84 in /  1044.2 hPa NW 10.4 mph /  16.7 km/h 10.4 mph /  16.7 km/h 75 % 0.00 in /  0 mm 302.0 W/m2 -SN
09:31 -2.3 °F /  -19.1 °C -8.3 °F /  -22.4 °C 30.85 in /  1044.6 hPa NW 6.9 mph /  11.1 km/h 6.9 mph /  11.1 km/h 75 % 0.00 in /  0 mm 309.0 W/m2 -SN
09:36 -2.1 °F /  -18.9 °C -8.1 °F /  -22.3 °C 30.85 in /  1044.6 hPa NW 10.4 mph /  16.7 km/h 10.4 mph /  16.7 km/h 75 % 0.00 in /  0 mm 318.0 W/m2 -SN
09:38 -2.1 °F /  -18.9 °C -8.1 °F /  -22.3 °C 30.85 in /  1044.6 hPa NW 8.1 mph /  13 km/h 8.1 mph /  13 km/h 75 % 0.00 in /  0 mm 322.0 W/m2 -SN
09:39 -2.0 °F /  -18.9 °C -8.0 °F /  -22.2 °C 30.85 in /  1044.6 hPa NW 10.4 mph /  16.7 km/h 10.4 mph /  16.7 km/h 75 % 0.00 in /  0 mm 323.0 W/m2 -SN
09:44 -1.8 °F /  -18.8 °C -7.8 °F /  -22.1 °C 30.85 in /  1044.6 hPa NW 11.5 mph /  18.5 km/h 11.5 mph /  18.5 km/h 75 % 0.00 in /  0 mm 332.0 W/m2 CLR
09:45 -1.7 °F /  -18.7 °C -7.7 °F /  -22.1 °C 30.85 in /  1044.6 hPa NW 10.4 mph /  16.7 km/h 10.4 mph /  16.7 km/h 75 % 0.00 in /  0 mm 336.0 W/m2 CLR
09:47 -1.7 °F /  -18.7 °C -7.7 °F /  -22.1 °C 30.86 in /  1044.9 hPa NW 10.4 mph /  16.7 km/h 10.4 mph /  16.7 km/h 75 % 0.00 in /  0 mm 339.0 W/m2 CLR
09:50 -1.6 °F /  -18.7 °C -7.9 °F /  -22.2 °C 30.85 in /  1044.6 hPa WNW 9.2 mph /  14.8 km/h 9.2 mph /  14.8 km/h 74 % 0.00 in /  0 mm 345.0 W/m2 CLR
09:55 -1.3 °F /  -18.5 °C -7.6 °F /  -22 °C 30.85 in /  1044.6 hPa NW 9.2 mph /  14.8 km/h 9.2 mph /  14.8 km/h 74 % 0.00 in /  0 mm 355.0 W/m2 CLR
09:57 -1.3 °F /  -18.5 °C -7.6 °F /  -22 °C 30.85 in /  1044.6 hPa NW 9.2 mph /  14.8 km/h 9.2 mph /  14.8 km/h 74 % 0.00 in /  0 mm 359.0 W/m2 CLR
10:02 -1.1 °F /  -18.4 °C -7.4 °F /  -21.9 °C 30.85 in /  1044.6 hPa NW 11.5 mph /  18.5 km/h 11.5 mph /  18.5 km/h 74 % 0.00 in /  0 mm 367.0 W/m2 CLR
10:03 -1.0 °F /  -18.3 °C -7.3 °F /  -21.8 °C 30.85 in /  1044.6 hPa NW 11.5 mph /  18.5 km/h 11.5 mph /  18.5 km/h 74 % 0.00 in /  0 mm 367.0 W/m2 CLR
10:05 -1.0 °F /  -18.3 °C -7.3 °F /  -21.8 °C 30.85 in /  1044.6 hPa NW 8.1 mph /  13 km/h 8.1 mph /  13 km/h 74 % 0.00 in /  0 mm 371.0 W/m2 CLR
10:09 -0.9 °F /  -18.3 °C -7.2 °F /  -21.8 °C 30.85 in /  1044.6 hPa NW 10.4 mph /  16.7 km/h 10.4 mph /  16.7 km/h 74 % 0.00 in /  0 mm 378.0 W/m2 CLR
10:13 -0.8 °F /  -18.2 °C -7.1 °F /  -21.7 °C 30.85 in /  1044.6 hPa NW 9.2 mph /  14.8 km/h 9.2 mph /  14.8 km/h 74 % 0.00 in /  0 mm 385.0 W/m2 CLR
10:14 -0.8 °F /  -18.2 °C -7.1 °F /  -21.7 °C 30.86 in /  1044.9 hPa NW 8.1 mph /  13 km/h 8.1 mph /  13 km/h 74 % 0.00 in /  0 mm 385.0 W/m2 CLR
10:19 -0.6 °F /  -18.1 °C -6.9 °F /  -21.6 °C 30.85 in /  1044.6 hPa NW 9.2 mph /  14.8 km/h 9.2 mph /  14.8 km/h 74 % 0.00 in /  0 mm 394.0 W/m2 CLR
10:20 -0.6 °F /  -18.1 °C -6.9 °F /  -21.6 °C 30.85 in /  1044.6 hPa NW 11.5 mph /  18.5 km/h 11.5 mph /  18.5 km/h 74 % 0.00 in /  0 mm 396.0 W/m2 CLR
10:21 -0.5 °F /  -18.1 °C -6.8 °F /  -21.6 °C 30.86 in /  1044.9 hPa NW 11.5 mph /  18.5 km/h 11.5 mph /  18.5 km/h 74 % 0.00 in /  0 mm 396.0 W/m2 CLR
10:25 -0.4 °F /  -18 °C -6.7 °F /  -21.5 °C 30.86 in /  1044.9 hPa North 9.2 mph /  14.8 km/h 9.2 mph /  14.8 km/h 74 % 0.00 in /  0 mm 403.0 W/m2 CLR
10:27 -0.2 °F /  -17.9 °C -6.5 °F /  -21.4 °C 30.86 in /  1044.9 hPa NW 10.4 mph /  16.7 km/h 10.4 mph /  16.7 km/h 74 % 0.00 in /  0 mm 404.0 W/m2 CLR
10:31 -0.1 °F /  -17.8 °C -6.4 °F /  -21.3 °C 30.85 in /  1044.6 hPa NW 10.4 mph /  16.7 km/h 10.4 mph /  16.7 km/h 74 % 0.00 in /  0 mm 410.0 W/m2 CLR
10:36 0.1 °F /  -17.7 °C -6.5 °F /  -21.4 °C 30.85 in /  1044.6 hPa NW 11.5 mph /  18.5 km/h 11.5 mph /  18.5 km/h 73 % 0.00 in /  0 mm 417.0 W/m2 CLR
10:37 0.1 °F /  -17.7 °C -6.5 °F /  -21.4 °C 30.85 in /  1044.6 hPa NW 9.2 mph /  14.8 km/h 9.2 mph /  14.8 km/h 73 % 0.00 in /  0 mm 417.0 W/m2 CLR
10:41 0.3 °F /  -17.6 °C -6.3 °F /  -21.3 °C 30.85 in /  1044.6 hPa WNW 9.2 mph /  14.8 km/h 9.2 mph /  14.8 km/h 73 % 0.00 in /  0 mm 420.0 W/m2 CLR
10:43 0.4 °F /  -17.6 °C -6.5 °F /  -21.4 °C 30.85 in /  1044.6 hPa NW 8.1 mph /  13 km/h 8.1 mph /  13 km/h 72 % 0.00 in /  0 mm 424.0 W/m2 CLR
10:48 0.9 °F /  -17.3 °C -5.7 °F /  -20.9 °C 30.85 in /  1044.6 hPa NW 8.1 mph /  13 km/h 8.1 mph /  13 km/h 73 % 0.00 in /  0 mm 429.0 W/m2 CLR
10:53 1.0 °F /  -17.2 °C -5.9 °F /  -21.1 °C 30.85 in /  1044.6 hPa NW 6.9 mph /  11.1 km/h 6.9 mph /  11.1 km/h 72 % 0.00 in /  0 mm 434.0 W/m2 CLR
10:57 1.2 °F /  -17.1 °C -5.7 °F /  -20.9 °C 30.85 in /  1044.6 hPa NW 9.2 mph /  14.8 km/h 9.2 mph /  14.8 km/h 72 % 0.00 in /  0 mm 436.0 W/m2 CLR
10:59 1.2 °F /  -17.1 °C -5.7 °F /  -20.9 °C 30.85 in /  1044.6 hPa NW 9.0 mph /  14.5 km/h 9.0 mph /  14.5 km/h 72 % 0.00 in /  0 mm 439.0 W/m2 CLR
11:04 1.3 °F /  -17.1 °C -5.9 °F /  -21.1 °C 30.85 in /  1044.6 hPa WNW 8.1 mph /  13 km/h 8.1 mph /  13 km/h 71 % 0.00 in /  0 mm 443.0 W/m2 CLR
11:09 1.3 °F /  -17.1 °C -6.2 °F /  -21.2 °C 30.85 in /  1044.6 hPa NW 9.2 mph /  14.8 km/h 9.2 mph /  14.8 km/h 70 % 0.00 in /  0 mm 446.0 W/m2 CLR
11:11 1.3 °F /  -17.1 °C -6.2 °F /  -21.2 °C 30.85 in /  1044.6 hPa NW 9.2 mph /  14.8 km/h 9.2 mph /  14.8 km/h 70 % 0.00 in /  0 mm 446.0 W/m2 CLR
11:14 1.4 °F /  -17 °C -5.8 °F /  -21 °C 30.85 in /  1044.6 hPa NW 9.2 mph /  14.8 km/h 9.2 mph /  14.8 km/h 71 % 0.00 in /  0 mm 448.0 W/m2 CLR
11:17 1.5 °F /  -16.9 °C -5.7 °F /  -20.9 °C 30.85 in /  1044.6 hPa NW 7.0 mph /  11.3 km/h 7.0 mph /  11.3 km/h 71 % 0.00 in /  0 mm 448.0 W/m2 CLR
11:22 1.7 °F /  -16.8 °C -5.8 °F /  -21 °C 30.85 in /  1044.6 hPa NW 11.5 mph /  18.5 km/h 11.5 mph /  18.5 km/h 70 % 0.00 in /  0 mm 454.0 W/m2 CLR
11:23 1.8 °F /  -16.8 °C -5.7 °F /  -20.9 °C 30.84 in /  1044.2 hPa NW 11.5 mph /  18.5 km/h 11.5 mph /  18.5 km/h 70 % 0.00 in /  0 mm 454.0 W/m2 CLR
11:28 1.8 °F /  -16.8 °C -5.7 °F /  -20.9 °C 30.84 in /  1044.2 hPa NW 10.4 mph /  16.7 km/h 10.4 mph /  16.7 km/h 70 % 0.00 in /  0 mm 455.0 W/m2 CLR
11:30 1.8 °F /  -16.8 °C -5.7 °F /  -20.9 °C 30.84 in /  1044.2 hPa NW 10.4 mph /  16.7 km/h 10.4 mph /  16.7 km/h 70 % 0.00 in /  0 mm 457.0 W/m2 CLR
11:35 1.9 °F /  -16.7 °C -5.6 °F /  -20.9 °C 30.84 in /  1044.2 hPa NW 9.2 mph /  14.8 km/h 9.2 mph /  14.8 km/h 70 % 0.00 in /  0 mm 459.0 W/m2 CLR
11:36 1.9 °F /  -16.7 °C -5.6 °F /  -20.9 °C 30.84 in /  1044.2 hPa WNW 10.4 mph /  16.7 km/h 10.4 mph /  16.7 km/h 70 % 0.00 in /  0 mm 459.0 W/m2 CLR
11:40 2.1 °F /  -16.6 °C -5.4 °F /  -20.8 °C 30.83 in /  1043.9 hPa NW 6.9 mph /  11.1 km/h 6.9 mph /  11.1 km/h 70 % 0.00 in /  0 mm 461.0 W/m2 CLR
11:43 2.3 °F /  -16.5 °C -5.3 °F /  -20.7 °C 30.83 in /  1043.9 hPa NW 9.2 mph /  14.8 km/h 9.2 mph /  14.8 km/h 70 % 0.00 in /  0 mm 459.0 W/m2 CLR
11:47 2.4 °F /  -16.4 °C -4.9 °F /  -20.5 °C 30.83 in /  1043.9 hPa NNW 8.1 mph /  13 km/h 8.1 mph /  13 km/h 71 % 0.00 in /  0 mm 461.0 W/m2 CLR
11:52 2.4 °F /  -16.4 °C -5.2 °F /  -20.7 °C 30.83 in /  1043.9 hPa NW 10.4 mph /  16.7 km/h 10.4 mph /  16.7 km/h 70 % 0.00 in /  0 mm 461.0 W/m2 CLR
11:57 2.6 °F /  -16.3 °C -5.0 °F /  -20.6 °C 30.83 in /  1043.9 hPa NW 11.5 mph /  18.5 km/h 11.5 mph /  18.5 km/h 70 % 0.00 in /  0 mm 461.0 W/m2 CLR
11:59 2.6 °F /  -16.3 °C -5.0 °F /  -20.6 °C 30.83 in /  1043.9 hPa NW 10.4 mph /  16.7 km/h 10.4 mph /  16.7 km/h 70 % 0.00 in /  0 mm 462.0 W/m2 CLR
12:00 2.6 °F /  -16.3 °C -5.0 °F /  -20.6 °C 30.83 in /  1043.9 hPa NW 10.4 mph /  16.7 km/h 10.4 mph /  16.7 km/h 70 % 0.00 in /  0 mm 461.0 W/m2 CLR
12:05 2.7 °F /  -16.3 °C -4.9 °F /  -20.5 °C 30.83 in /  1043.9 hPa WNW 7.0 mph /  11.3 km/h 7.0 mph /  11.3 km/h 70 % 0.00 in /  0 mm 461.0 W/m2 CLR
12:09 2.7 °F /  -16.3 °C -4.9 °F /  -20.5 °C 30.83 in /  1043.9 hPa WNW 6.9 mph /  11.1 km/h 7.0 mph /  11.3 km/h 70 % 0.00 in /  0 mm 461.0 W/m2 CLR
12:10 2.7 °F /  -16.3 °C -4.9 °F /  -20.5 °C 30.83 in /  1043.9 hPa WNW 7.0 mph /  11.3 km/h 7.0 mph /  11.3 km/h 70 % 0.00 in /  0 mm 461.0 W/m2 CLR
12:15 2.9 °F /  -16.2 °C -5.0 °F /  -20.6 °C 30.84 in /  1044.2 hPa WNW 9.2 mph /  14.8 km/h 9.2 mph /  14.8 km/h 69 % 0.00 in /  0 mm 459.0 W/m2 CLR
12:18 3.1 °F /  -16.1 °C -4.5 °F /  -20.3 °C 30.83 in /  1043.9 hPa WNW 6.9 mph /  11.1 km/h 6.9 mph /  11.1 km/h 70 % 0.00 in /  0 mm 455.0 W/m2 CLR
12:20 3.3 °F /  -15.9 °C -4.3 °F /  -20.2 °C 30.83 in /  1043.9 hPa WNW 4.6 mph /  7.4 km/h 4.6 mph /  7.4 km/h 70 % 0.00 in /  0 mm 454.0 W/m2 CLR
12:25 3.6 °F /  -15.8 °C -4.3 °F /  -20.2 °C 30.83 in /  1043.9 hPa WNW 6.9 mph /  11.1 km/h 6.9 mph /  11.1 km/h 69 % 0.00 in /  0 mm 450.0 W/m2 CLR
12:26 3.6 °F /  -15.8 °C -4.3 °F /  -20.2 °C 30.83 in /  1043.9 hPa WNW 3.5 mph /  5.6 km/h 3.5 mph /  5.6 km/h 69 % 0.00 in /  0 mm 454.0 W/m2 CLR
12:31 3.9 °F /  -15.6 °C -4.3 °F /  -20.2 °C 30.84 in /  1044.2 hPa West 9.0 mph /  14.5 km/h 9.0 mph /  14.5 km/h 68 % 0.00 in /  0 mm 448.0 W/m2 CLR
12:32 3.9 °F /  -15.6 °C -4.3 °F /  -20.2 °C 30.84 in /  1044.2 hPa WNW 9.2 mph /  14.8 km/h 9.2 mph /  14.8 km/h 68 % 0.00 in /  0 mm 450.0 W/m2 CLR
12:33 3.9 °F /  -15.6 °C -4.6 °F /  -20.3 °C 30.84 in /  1044.2 hPa WNW 11.5 mph /  18.5 km/h 11.5 mph /  18.5 km/h 67 % 0.00 in /  0 mm 446.0 W/m2 CLR
12:38 4.0 °F /  -15.6 °C -4.5 °F /  -20.3 °C 30.84 in /  1044.2 hPa NW 8.1 mph /  13 km/h 8.1 mph /  13 km/h 67 % 0.00 in /  0 mm 443.0 W/m2 CLR
12:39 4.0 °F /  -15.6 °C -4.5 °F /  -20.3 °C 30.84 in /  1044.2 hPa NW 10.0 mph /  16.1 km/h 10.0 mph /  16.1 km/h 67 % 0.00 in /  0 mm 443.0 W/m2 CLR
12:44 4.1 °F /  -15.5 °C -4.1 °F /  -20.1 °C 30.84 in /  1044.2 hPa NW 11.5 mph /  18.5 km/h 11.5 mph /  18.5 km/h 68 % 0.00 in /  0 mm 439.0 W/m2 CLR
12:45 4.1 °F /  -15.5 °C -4.1 °F /  -20.1 °C 30.84 in /  1044.2 hPa NW 11.5 mph /  18.5 km/h 11.5 mph /  18.5 km/h 68 % 0.00 in /  0 mm 439.0 W/m2 CLR
12:50 4.2 °F /  -15.4 °C -4.0 °F /  -20 °C 30.84 in /  1044.2 hPa WNW 10.4 mph /  16.7 km/h 10.4 mph /  16.7 km/h 68 % 0.00 in /  0 mm 436.0 W/m2 CLR
12:51 4.2 °F /  -15.4 °C -4.0 °F /  -20 °C 30.84 in /  1044.2 hPa WNW 11.5 mph /  18.5 km/h 11.5 mph /  18.5 km/h 68 % 0.00 in /  0 mm 436.0 W/m2 CLR
12:52 4.2 °F /  -15.4 °C -4.3 °F /  -20.2 °C 30.84 in /  1044.2 hPa WNW 10.4 mph /  16.7 km/h 10.4 mph /  16.7 km/h 67 % 0.00 in /  0 mm 432.0 W/m2 CLR
12:56 4.2 °F /  -15.4 °C -4.7 °F /  -20.4 °C 30.84 in /  1044.2 hPa NW 10.4 mph /  16.7 km/h 10.4 mph /  16.7 km/h 66 % 0.00 in /  0 mm 431.0 W/m2 CLR
13:01 4.1 °F /  -15.5 °C -4.8 °F /  -20.4 °C 30.83 in /  1043.9 hPa WNW 10.4 mph /  16.7 km/h 10.4 mph /  16.7 km/h 66 % 0.00 in /  0 mm 425.0 W/m2 CLR
13:03 4.2 °F /  -15.4 °C -4.7 °F /  -20.4 °C 30.83 in /  1043.9 hPa WNW 6.9 mph /  11.1 km/h 6.9 mph /  11.1 km/h 66 % 0.00 in /  0 mm 424.0 W/m2 CLR
13:04 4.2 °F /  -15.4 °C -4.7 °F /  -20.4 °C 30.83 in /  1043.9 hPa WNW 10.4 mph /  16.7 km/h 10.4 mph /  16.7 km/h 66 % 0.00 in /  0 mm 424.0 W/m2 CLR
13:09 4.3 °F /  -15.4 °C -4.6 °F /  -20.3 °C 30.83 in /  1043.9 hPa WNW 10.4 mph /  16.7 km/h 10.4 mph /  16.7 km/h 66 % 0.00 in /  0 mm 417.0 W/m2 CLR
13:10 4.3 °F /  -15.4 °C -4.6 °F /  -20.3 °C 30.83 in /  1043.9 hPa WNW 10.4 mph /  16.7 km/h 10.4 mph /  16.7 km/h 66 % 0.00 in /  0 mm 417.0 W/m2 CLR
13:12 4.4 °F /  -15.3 °C -4.5 °F /  -20.3 °C 30.83 in /  1043.9 hPa WNW 10.4 mph /  16.7 km/h 10.4 mph /  16.7 km/h 66 % 0.00 in /  0 mm 413.0 W/m2 CLR
13:17 4.3 °F /  -15.4 °C -4.9 °F /  -20.5 °C 30.84 in /  1044.2 hPa West 10.4 mph /  16.7 km/h 10.4 mph /  16.7 km/h 65 % 0.00 in /  0 mm 408.0 W/m2 CLR
13:19 4.4 °F /  -15.3 °C -4.8 °F /  -20.4 °C 30.83 in /  1043.9 hPa NW 10.4 mph /  16.7 km/h 10.4 mph /  16.7 km/h 65 % 0.00 in /  0 mm 406.0 W/m2 CLR
13:24 4.3 °F /  -15.4 °C -4.9 °F /  -20.5 °C 30.83 in /  1043.9 hPa WNW 10.4 mph /  16.7 km/h 10.4 mph /  16.7 km/h 65 % 0.00 in /  0 mm 403.0 W/m2 CLR
13:26 4.5 °F /  -15.3 °C -4.7 °F /  -20.4 °C 30.83 in /  1043.9 hPa WNW 10.4 mph /  16.7 km/h 10.4 mph /  16.7 km/h 65 % 0.00 in /  0 mm 396.0 W/m2 CLR
13:29 4.5 °F /  -15.3 °C -4.7 °F /  -20.4 °C 30.83 in /  1043.9 hPa NW 9.2 mph /  14.8 km/h 9.2 mph /  14.8 km/h 65 % 0.00 in /  0 mm 392.0 W/m2 CLR
13:34 4.5 °F /  -15.3 °C -5.0 °F /  -20.6 °C 30.83 in /  1043.9 hPa NNW 11.5 mph /  18.5 km/h 11.5 mph /  18.5 km/h 64 % 0.00 in /  0 mm 385.0 W/m2 CLR
13:35 4.5 °F /  -15.3 °C -5.0 °F /  -20.6 °C 30.83 in /  1043.9 hPa WNW 10.4 mph /  16.7 km/h 10.4 mph /  16.7 km/h 64 % 0.00 in /  0 mm 383.0 W/m2 CLR
13:40 4.7 °F /  -15.2 °C -4.8 °F /  -20.4 °C 30.83 in /  1043.9 hPa NW 11.5 mph /  18.5 km/h 11.5 mph /  18.5 km/h 64 % 0.00 in /  0 mm 376.0 W/m2 CLR
13:41 4.7 °F /  -15.2 °C -4.8 °F /  -20.4 °C 30.83 in /  1043.9 hPa WNW 8.1 mph /  13 km/h 8.1 mph /  13 km/h 64 % 0.00 in /  0 mm 374.0 W/m2 CLR
13:46 4.6 °F /  -15.2 °C -4.9 °F /  -20.5 °C 30.82 in /  1043.6 hPa NW 10.4 mph /  16.7 km/h 10.4 mph /  16.7 km/h 64 % 0.00 in /  0 mm 367.0 W/m2 CLR
13:48 4.6 °F /  -15.2 °C -5.2 °F /  -20.7 °C 30.82 in /  1043.6 hPa NW 8.1 mph /  13 km/h 8.1 mph /  13 km/h 63 % 0.00 in /  0 mm 364.0 W/m2 CLR
13:53 4.6 °F /  -15.2 °C -5.2 °F /  -20.7 °C 30.82 in /  1043.6 hPa WNW 11.5 mph /  18.5 km/h 11.5 mph /  18.5 km/h 63 % 0.00 in /  0 mm 357.0 W/m2 CLR
13:54 4.7 °F /  -15.2 °C -5.1 °F /  -20.6 °C 30.82 in /  1043.6 hPa WNW 11.5 mph /  18.5 km/h 11.5 mph /  18.5 km/h 63 % 0.00 in /  0 mm 355.0 W/m2 CLR
13:59 4.6 °F /  -15.2 °C -5.2 °F /  -20.7 °C 30.82 in /  1043.6 hPa WNW 11.5 mph /  18.5 km/h 11.5 mph /  18.5 km/h 63 % 0.00 in /  0 mm 345.0 W/m2 CLR
14:00 4.6 °F /  -15.2 °C -5.2 °F /  -20.7 °C 30.82 in /  1043.6 hPa WNW 11.5 mph /  18.5 km/h 11.5 mph /  18.5 km/h 63 % 0.00 in /  0 mm 341.0 W/m2 CLR
14:04 4.6 °F /  -15.2 °C -5.2 °F /  -20.7 °C 30.82 in /  1043.6 hPa NW 10.4 mph /  16.7 km/h 10.4 mph /  16.7 km/h 63 % 0.00 in /  0 mm 332.0 W/m2 CLR
14:06 4.6 °F /  -15.2 °C -5.2 °F /  -20.7 °C 30.81 in /  1043.2 hPa NW 9.2 mph /  14.8 km/h 9.2 mph /  14.8 km/h 63 % 0.00 in /  0 mm 330.0 W/m2 CLR
14:09 4.6 °F /  -15.2 °C -5.2 °F /  -20.7 °C 30.81 in /  1043.2 hPa NW 11.5 mph /  18.5 km/h 11.5 mph /  18.5 km/h 63 % 0.00 in /  0 mm 308.0 W/m2 CLR
14:11 4.5 °F /  -15.3 °C -5.3 °F /  -20.7 °C 30.81 in /  1043.2 hPa NW 8.1 mph /  13 km/h 8.1 mph /  13 km/h 63 % 0.00 in /  0 mm 302.0 W/m2 CLR
14:16 4.5 °F /  -15.3 °C -5.0 °F /  -20.6 °C 30.81 in /  1043.2 hPa NW 5.8 mph /  9.3 km/h 5.8 mph /  9.3 km/h 64 % 0.00 in /  0 mm 304.0 W/m2 CLR
14:21 4.7 °F /  -15.2 °C -4.8 °F /  -20.4 °C 30.81 in /  1043.2 hPa NW 10.4 mph /  16.7 km/h 10.4 mph /  16.7 km/h 64 % 0.00 in /  0 mm 274.0 W/m2 CLR
14:23 4.7 °F /  -15.2 °C -5.1 °F /  -20.6 °C 30.81 in /  1043.2 hPa WNW 10.4 mph /  16.7 km/h 10.4 mph /  16.7 km/h 63 % 0.00 in /  0 mm 274.0 W/m2 CLR
14:26 4.6 °F /  -15.2 °C -5.2 °F /  -20.7 °C 30.81 in /  1043.2 hPa NW 8.1 mph /  13 km/h 8.1 mph /  13 km/h 63 % 0.00 in /  0 mm 294.0 W/m2 CLR
14:31 4.6 °F /  -15.2 °C -4.9 °F /  -20.5 °C 30.81 in /  1043.2 hPa NNW 10.4 mph /  16.7 km/h 10.4 mph /  16.7 km/h 64 % 0.00 in /  0 mm 279.0 W/m2 CLR
14:32 4.7 °F /  -15.2 °C -4.8 °F /  -20.4 °C 30.81 in /  1043.2 hPa NNW 10.4 mph /  16.7 km/h 10.4 mph /  16.7 km/h 64 % 0.00 in /  0 mm 279.0 W/m2 CLR
14:37 4.6 °F /  -15.2 °C -4.9 °F /  -20.5 °C 30.81 in /  1043.2 hPa NW 9.2 mph /  14.8 km/h 9.2 mph /  14.8 km/h 64 % 0.00 in /  0 mm 271.0 W/m2 CLR
14:42 4.7 °F /  -15.2 °C -4.5 °F /  -20.3 °C 30.80 in /  1042.9 hPa NW 8.1 mph /  13 km/h 8.1 mph /  13 km/h 65 % 0.00 in /  0 mm 243.0 W/m2 CLR
14:43 4.7 °F /  -15.2 °C -4.5 °F /  -20.3 °C 30.80 in /  1042.9 hPa NNW 8.1 mph /  13 km/h 8.1 mph /  13 km/h 65 % 0.00 in /  0 mm 239.0 W/m2 CLR
14:48 4.6 °F /  -15.2 °C -4.3 °F /  -20.2 °C 30.81 in /  1043.2 hPa WNW 6.9 mph /  11.1 km/h 6.9 mph /  11.1 km/h 66 % 0.00 in /  0 mm 176.0 W/m2 CLR
14:50 4.5 °F /  -15.3 °C -4.7 °F /  -20.4 °C 30.80 in /  1042.9 hPa North 3.5 mph /  5.6 km/h 3.5 mph /  5.6 km/h 65 % 0.00 in /  0 mm 153.0 W/m2 CLR
14:55 4.4 °F /  -15.3 °C -4.8 °F /  -20.4 °C 30.80 in /  1042.9 hPa NNW 4.6 mph /  7.4 km/h 4.6 mph /  7.4 km/h 65 % 0.00 in /  0 mm 171.0 W/m2 CLR
14:57 4.5 °F /  -15.3 °C -4.4 °F /  -20.2 °C 30.80 in /  1042.9 hPa NW 5.8 mph /  9.3 km/h 5.8 mph /  9.3 km/h 66 % 0.00 in /  0 mm 153.0 W/m2 CLR
15:02 4.4 °F /  -15.3 °C -4.5 °F /  -20.3 °C 30.80 in /  1042.9 hPa NW 8.1 mph /  13 km/h 8.1 mph /  13 km/h 66 % 0.00 in /  0 mm 114.0 W/m2 CLR
15:03 4.3 °F /  -15.4 °C -4.6 °F /  -20.3 °C 30.80 in /  1042.9 hPa NW 8.1 mph /  13 km/h 8.1 mph /  13 km/h 66 % 0.00 in /  0 mm 114.0 W/m2 CLR
15:08 4.2 °F /  -15.4 °C -4.7 °F /  -20.4 °C 30.80 in /  1042.9 hPa WNW 1.2 mph /  1.9 km/h 1.2 mph /  1.9 km/h 66 % 0.00 in /  0 mm 84.0 W/m2 CLR
15:09 4.2 °F /  -15.4 °C -4.3 °F /  -20.2 °C 30.80 in /  1042.9 hPa WNW 2.3 mph /  3.7 km/h 2.3 mph /  3.7 km/h 67 % 0.00 in /  0 mm 98.0 W/m2 CLR
15:12 4.2 °F /  -15.4 °C -4.3 °F /  -20.2 °C 30.80 in /  1042.9 hPa WNW 3.5 mph /  5.6 km/h 3.5 mph /  5.6 km/h 67 % 0.00 in /  0 mm 88.0 W/m2 CLR
15:14 4.1 °F /  -15.5 °C -4.4 °F /  -20.2 °C 30.80 in /  1042.9 hPa WNW 3.5 mph /  5.6 km/h 3.5 mph /  5.6 km/h 67 % 0.00 in /  0 mm 90.0 W/m2 CLR
15:19 4.0 °F /  -15.6 °C -4.5 °F /  -20.3 °C 30.80 in /  1042.9 hPa NW 5.8 mph /  9.3 km/h 5.8 mph /  9.3 km/h 67 % 0.00 in /  0 mm 81.0 W/m2 CLR
15:21 4.0 °F /  -15.6 °C -4.5 °F /  -20.3 °C 30.80 in /  1042.9 hPa NNW 4.0 mph /  6.4 km/h 4.0 mph /  6.4 km/h 67 % 0.00 in /  0 mm 81.0 W/m2 CLR
15:22 4.0 °F /  -15.6 °C -4.5 °F /  -20.3 °C 30.80 in /  1042.9 hPa NW 3.5 mph /  5.6 km/h 3.5 mph /  5.6 km/h 67 % 0.00 in /  0 mm 81.0 W/m2 CLR
15:27 4.0 °F /  -15.6 °C -4.5 °F /  -20.3 °C 30.80 in /  1042.9 hPa NW 3.5 mph /  5.6 km/h 3.5 mph /  5.6 km/h 67 % 0.00 in /  0 mm 81.0 W/m2 CLR
15:28 3.9 °F /  -15.6 °C -4.6 °F /  -20.3 °C 30.80 in /  1042.9 hPa NW 3.5 mph /  5.6 km/h 3.5 mph /  5.6 km/h 67 % 0.00 in /  0 mm 83.0 W/m2 CLR
15:32 3.9 °F /  -15.6 °C -4.6 °F /  -20.3 °C 30.80 in /  1042.9 hPa NW 3.5 mph /  5.6 km/h 3.5 mph /  5.6 km/h 67 % 0.00 in /  0 mm 63.0 W/m2 CLR
15:37 3.8 °F /  -15.7 °C -4.7 °F /  -20.4 °C 30.81 in /  1043.2 hPa WNW 3.5 mph /  5.6 km/h 3.5 mph /  5.6 km/h 67 % 0.00 in /  0 mm 49.0 W/m2 CLR
15:39 3.8 °F /  -15.7 °C -4.7 °F /  -20.4 °C 30.81 in /  1043.2 hPa WNW 2.3 mph /  3.7 km/h 2.3 mph /  3.7 km/h 67 % 0.00 in /  0 mm 46.0 W/m2 CLR
15:43 3.7 °F /  -15.7 °C -4.8 °F /  -20.4 °C 30.81 in /  1043.2 hPa WNW 2.3 mph /  3.7 km/h 2.3 mph /  3.7 km/h 67 % 0.00 in /  0 mm 37.0 W/m2 CLR
15:48 3.6 °F /  -15.8 °C -4.9 °F /  -20.5 °C 30.81 in /  1043.2 hPa WNW 1.2 mph /  1.9 km/h 1.2 mph /  1.9 km/h 67 % 0.00 in /  0 mm 33.0 W/m2 CLR
15:53 3.5 °F /  -15.8 °C -4.7 °F /  -20.4 °C 30.81 in /  1043.2 hPa WNW 3.5 mph /  5.6 km/h 3.5 mph /  5.6 km/h 68 % 0.00 in /  0 mm 30.0 W/m2 CLR
15:54 3.4 °F /  -15.9 °C -4.8 °F /  -20.4 °C 30.81 in /  1043.2 hPa WNW 3.5 mph /  5.6 km/h 3.5 mph /  5.6 km/h 68 % 0.00 in /  0 mm 28.0 W/m2 CLR
15:59 3.2 °F /  -16 °C -5.0 °F /  -20.6 °C 30.82 in /  1043.6 hPa WNW 2.3 mph /  3.7 km/h 2.3 mph /  3.7 km/h 68 % 0.00 in /  0 mm 26.0 W/m2 CLR
16:04 3.1 °F /  -16.1 °C -5.1 °F /  -20.6 °C 30.82 in /  1043.6 hPa WNW 2.3 mph /  3.7 km/h 2.3 mph /  3.7 km/h 68 % 0.00 in /  0 mm 23.0 W/m2 CLR
16:06 3.0 °F /  -16.1 °C -5.2 °F /  -20.7 °C 30.82 in /  1043.6 hPa WNW 2.3 mph /  3.7 km/h 2.3 mph /  3.7 km/h 68 % 0.00 in /  0 mm 23.0 W/m2 CLR
16:11 2.9 °F /  -16.2 °C -5.3 °F /  -20.7 °C 30.82 in /  1043.6 hPa WNW 1.2 mph /  1.9 km/h 1.2 mph /  1.9 km/h 68 % 0.00 in /  0 mm 19.0 W/m2 CLR
16:12 2.9 °F /  -16.2 °C -5.3 °F /  -20.7 °C 30.82 in /  1043.6 hPa Calm     68 % 0.00 in /  0 mm 18.0 W/m2 CLR
16:17 2.8 °F /  -16.2 °C -5.1 °F /  -20.6 °C 30.82 in /  1043.6 hPa WNW 1.2 mph /  1.9 km/h 1.2 mph /  1.9 km/h 69 % 0.00 in /  0 mm 12.0 W/m2 CLR
16:22 2.7 °F /  -16.3 °C -5.2 °F /  -20.7 °C 30.82 in /  1043.6 hPa WNW 2.3 mph /  3.7 km/h 2.3 mph /  3.7 km/h 69 % 0.00 in /  0 mm 7.0 W/m2 CLR
16:24 2.7 °F /  -16.3 °C -5.2 °F /  -20.7 °C 30.82 in /  1043.6 hPa WNW 3.5 mph /  5.6 km/h 3.5 mph /  5.6 km/h 69 % 0.00 in /  0 mm 5.0 W/m2 CLR
16:29 2.7 °F /  -16.3 °C -5.2 °F /  -20.7 °C 30.82 in /  1043.6 hPa WNW 3.5 mph /  5.6 km/h 3.5 mph /  5.6 km/h 69 % 0.00 in /  0 mm 0.0 W/m2 CLR
16:30 2.7 °F /  -16.3 °C -5.2 °F /  -20.7 °C 30.82 in /  1043.6 hPa WNW 2.3 mph /  3.7 km/h 2.3 mph /  3.7 km/h 69 % 0.00 in /  0 mm 0.0 W/m2 CLR
16:35 2.7 °F /  -16.3 °C -4.9 °F /  -20.5 °C 30.82 in /  1043.6 hPa Calm     70 % 0.00 in /  0 mm 0.0 W/m2 CLR
16:37 2.7 °F /  -16.3 °C -4.9 °F /  -20.5 °C 30.82 in /  1043.6 hPa WNW 2.3 mph /  3.7 km/h 2.3 mph /  3.7 km/h 70 % 0.00 in /  0 mm 0.0 W/m2 CLR
16:39 2.7 °F /  -16.3 °C -4.9 °F /  -20.5 °C 30.82 in /  1043.6 hPa WNW 1.0 mph /  1.6 km/h 1.0 mph /  1.6 km/h 70 % 0.00 in /  0 mm 0.0 W/m2 CLR
16:44 2.7 °F /  -16.3 °C -4.9 °F /  -20.5 °C 30.82 in /  1043.6 hPa WNW 2.3 mph /  3.7 km/h 2.3 mph /  3.7 km/h 70 % 0.00 in /  0 mm 0.0 W/m2 CLR
16:45 2.7 °F /  -16.3 °C -4.9 °F /  -20.5 °C 30.82 in /  1043.6 hPa WNW 1.2 mph /  1.9 km/h   70 % 0.00 in /  0 mm 0.0 W/m2 CLR
16:49 2.8 °F /  -16.2 °C -4.8 °F /  -20.4 °C 30.82 in /  1043.6 hPa WNW 1.2 mph /  1.9 km/h 1.2 mph /  1.9 km/h 70 % 0.00 in /  0 mm 0.0 W/m2 CLR
16:51 2.8 °F /  -16.2 °C -4.8 °F /  -20.4 °C 30.82 in /  1043.6 hPa WNW 1.2 mph /  1.9 km/h 1.2 mph /  1.9 km/h 70 % 0.00 in /  0 mm 0.0 W/m2 CLR
16:52 2.8 °F /  -16.2 °C -4.8 °F /  -20.4 °C 30.81 in /  1043.2 hPa WNW 3.5 mph /  5.6 km/h 3.5 mph /  5.6 km/h 70 % 0.00 in /  0 mm 0.0 W/m2 CLR
16:55 2.7 °F /  -16.3 °C -4.9 °F /  -20.5 °C 30.82 in /  1043.6 hPa WNW 1.2 mph /  1.9 km/h 1.2 mph /  1.9 km/h 70 % 0.00 in /  0 mm 0.0 W/m2 CLR
17:00 2.7 °F /  -16.3 °C -4.9 °F /  -20.5 °C 30.82 in /  1043.6 hPa WNW 1.2 mph /  1.9 km/h 1.2 mph /  1.9 km/h 70 % 0.00 in /  0 mm 0.0 W/m2 CLR
17:05 2.6 °F /  -16.3 °C -5.0 °F /  -20.6 °C 30.82 in /  1043.6 hPa WNW 3.0 mph /  4.8 km/h 3.0 mph /  4.8 km/h 70 % 0.00 in /  0 mm 0.0 W/m2 CLR
17:10 2.6 °F /  -16.3 °C -5.0 °F /  -20.6 °C 30.82 in /  1043.6 hPa WNW 3.5 mph /  5.6 km/h 3.5 mph /  5.6 km/h 70 % 0.00 in /  0 mm 0.0 W/m2 CLR
17:12 2.6 °F /  -16.3 °C -5.0 °F /  -20.6 °C 30.82 in /  1043.6 hPa WNW 3.5 mph /  5.6 km/h 3.5 mph /  5.6 km/h 70 % 0.00 in /  0 mm 0.0 W/m2 CLR
17:17 2.5 °F /  -16.4 °C -5.1 °F /  -20.6 °C 30.82 in /  1043.6 hPa WNW 2.3 mph /  3.7 km/h 2.3 mph /  3.7 km/h 70 % 0.00 in /  0 mm 0.0 W/m2 CLR
17:18 2.5 °F /  -16.4 °C -5.1 °F /  -20.6 °C 30.82 in /  1043.6 hPa WNW 2.3 mph /  3.7 km/h 2.9 mph /  4.7 km/h 70 % 0.00 in /  0 mm 0.0 W/m2 CLR
17:19 2.5 °F /  -16.4 °C -5.1 °F /  -20.6 °C 30.82 in /  1043.6 hPa WNW 4.6 mph /  7.4 km/h 4.6 mph /  7.4 km/h 70 % 0.00 in /  0 mm 0.0 W/m2 CLR
17:24 2.5 °F /  -16.4 °C -5.1 °F /  -20.6 °C 30.82 in /  1043.6 hPa WNW 3.5 mph /  5.6 km/h 3.5 mph /  5.6 km/h 70 % 0.00 in /  0 mm 0.0 W/m2 CLR
17:29 2.5 °F /  -16.4 °C -5.1 °F /  -20.6 °C 30.82 in /  1043.6 hPa WNW 1.2 mph /  1.9 km/h   70 % 0.00 in /  0 mm 0.0 W/m2 CLR
17:30 2.5 °F /  -16.4 °C -5.1 °F /  -20.6 °C 30.82 in /  1043.6 hPa WNW 1.2 mph /  1.9 km/h 1.2 mph /  1.9 km/h 70 % 0.00 in /  0 mm 0.0 W/m2 CLR
17:35 2.5 °F /  -16.4 °C -5.1 °F /  -20.6 °C 30.82 in /  1043.6 hPa WNW 1.2 mph /  1.9 km/h   70 % 0.00 in /  0 mm 0.0 W/m2 CLR
17:37 2.5 °F /  -16.4 °C -5.1 °F /  -20.6 °C 30.82 in /  1043.6 hPa WNW 1.2 mph /  1.9 km/h 1.2 mph /  1.9 km/h 70 % 0.00 in /  0 mm 0.0 W/m2 CLR
17:39 2.4 °F /  -16.4 °C -5.2 °F /  -20.7 °C 30.82 in /  1043.6 hPa WNW 2.0 mph /  3.2 km/h 2.0 mph /  3.2 km/h 70 % 0.00 in /  0 mm 0.0 W/m2 CLR
17:42 2.4 °F /  -16.4 °C -5.2 °F /  -20.7 °C 30.82 in /  1043.6 hPa WNW 3.5 mph /  5.6 km/h 3.5 mph /  5.6 km/h 70 % 0.00 in /  0 mm 0.0 W/m2 CLR
17:47 2.2 °F /  -16.6 °C -5.4 °F /  -20.8 °C 30.82 in /  1043.6 hPa WNW 1.2 mph /  1.9 km/h 1.2 mph /  1.9 km/h 70 % 0.00 in /  0 mm 0.0 W/m2 CLR
17:50 2.0 °F /  -16.7 °C -5.5 °F /  -20.8 °C 30.82 in /  1043.6 hPa WNW 1.2 mph /  1.9 km/h 1.2 mph /  1.9 km/h 70 % 0.00 in /  0 mm 0.0 W/m2 CLR
17:53 1.9 °F /  -16.7 °C -5.6 °F /  -20.9 °C 30.82 in /  1043.6 hPa NW 4.6 mph /  7.4 km/h 4.6 mph /  7.4 km/h 70 % 0.00 in /  0 mm 0.0 W/m2 CLR
17:56 1.7 °F /  -16.8 °C -5.8 °F /  -21 °C 30.82 in /  1043.6 hPa NW 3.5 mph /  5.6 km/h 3.5 mph /  5.6 km/h 70 % 0.00 in /  0 mm 0.0 W/m2 CLR
18:01 1.5 °F /  -16.9 °C -6.0 °F /  -21.1 °C 30.82 in /  1043.6 hPa WNW 3.5 mph /  5.6 km/h 3.5 mph /  5.6 km/h 70 % 0.00 in /  0 mm 0.0 W/m2 CLR
18:06 1.3 °F /  -17.1 °C -5.9 °F /  -21.1 °C 30.82 in /  1043.6 hPa WNW 2.0 mph /  3.2 km/h 2.0 mph /  3.2 km/h 71 % 0.00 in /  0 mm 0.0 W/m2 CLR
18:08 1.3 °F /  -17.1 °C -5.9 °F /  -21.1 °C 30.82 in /  1043.6 hPa WNW 1.2 mph /  1.9 km/h 1.2 mph /  1.9 km/h 71 % 0.00 in /  0 mm 0.0 W/m2 CLR
18:13 1.2 °F /  -17.1 °C -6.0 °F /  -21.1 °C 30.82 in /  1043.6 hPa WNW 2.3 mph /  3.7 km/h 2.3 mph /  3.7 km/h 71 % 0.00 in /  0 mm 0.0 W/m2 CLR
18:14 1.2 °F /  -17.1 °C -5.7 °F /  -20.9 °C 30.82 in /  1043.6 hPa WNW 2.3 mph /  3.7 km/h 2.3 mph /  3.7 km/h 72 % 0.00 in /  0 mm 0.0 W/m2 CLR
18:15 1.1 °F /  -17.2 °C -5.8 °F /  -21 °C 30.82 in /  1043.6 hPa WNW 2.3 mph /  3.7 km/h 2.3 mph /  3.7 km/h 72 % 0.00 in /  0 mm 0.0 W/m2 CLR
18:19 1.0 °F /  -17.2 °C -5.9 °F /  -21.1 °C 30.82 in /  1043.6 hPa WNW 2.3 mph /  3.7 km/h 2.3 mph /  3.7 km/h 72 % 0.00 in /  0 mm 0.0 W/m2 CLR
18:20 1.0 °F /  -17.2 °C -5.9 °F /  -21.1 °C 30.82 in /  1043.6 hPa WNW 1.2 mph /  1.9 km/h 1.2 mph /  1.9 km/h 72 % 0.00 in /  0 mm 0.0 W/m2 CLR
18:25 0.9 °F /  -17.3 °C -6.0 °F /  -21.1 °C 30.83 in /  1043.9 hPa WNW 3.5 mph /  5.6 km/h 3.5 mph /  5.6 km/h 72 % 0.00 in /  0 mm 0.0 W/m2 CLR
18:26 0.9 °F /  -17.3 °C -6.0 °F /  -21.1 °C 30.83 in /  1043.9 hPa WNW 2.0 mph /  3.2 km/h 2.0 mph /  3.2 km/h 72 % 0.00 in /  0 mm 0.0 W/m2 CLR
18:31 0.8 °F /  -17.3 °C -5.8 °F /  -21 °C 30.83 in /  1043.9 hPa WNW 1.2 mph /  1.9 km/h   73 % 0.00 in /  0 mm 0.0 W/m2 CLR
18:32 0.8 °F /  -17.3 °C -5.8 °F /  -21 °C 30.83 in /  1043.9 hPa Calm     73 % 0.00 in /  0 mm 0.0 W/m2 CLR
18:37 0.8 °F /  -17.3 °C -5.8 °F /  -21 °C 30.83 in /  1043.9 hPa WNW 2.3 mph /  3.7 km/h 2.3 mph /  3.7 km/h 73 % 0.00 in /  0 mm 0.0 W/m2 CLR
18:40 0.7 °F /  -17.4 °C -5.9 °F /  -21.1 °C 30.83 in /  1043.9 hPa WNW 1.2 mph /  1.9 km/h 1.2 mph /  1.9 km/h 73 % 0.00 in /  0 mm 0.0 W/m2 CLR
18:44 0.6 °F /  -17.4 °C -5.7 °F /  -20.9 °C 30.83 in /  1043.9 hPa WNW 2.3 mph /  3.7 km/h 2.3 mph /  3.7 km/h 74 % 0.00 in /  0 mm 0.0 W/m2 CLR
18:47 0.6 °F /  -17.4 °C -5.7 °F /  -20.9 °C 30.82 in /  1043.6 hPa WNW 4.6 mph /  7.4 km/h 4.6 mph /  7.4 km/h 74 % 0.00 in /  0 mm 0.0 W/m2 CLR
18:50 0.5 °F /  -17.5 °C -5.8 °F /  -21 °C 30.83 in /  1043.9 hPa WNW 3.5 mph /  5.6 km/h 3.5 mph /  5.6 km/h 74 % 0.00 in /  0 mm 0.0 W/m2 CLR
18:54 0.5 °F /  -17.5 °C -5.8 °F /  -21 °C 30.83 in /  1043.9 hPa WNW 3.5 mph /  5.6 km/h 3.5 mph /  5.6 km/h 74 % 0.00 in /  0 mm 0.0 W/m2 CLR
18:55 0.5 °F /  -17.5 °C -5.8 °F /  -21 °C 30.83 in /  1043.9 hPa WNW 3.5 mph /  5.6 km/h 3.5 mph /  5.6 km/h 74 % 0.00 in /  0 mm 0.0 W/m2 CLR
18:59 0.4 °F /  -17.6 °C -5.9 °F /  -21.1 °C 30.83 in /  1043.9 hPa WNW 2.3 mph /  3.7 km/h 2.3 mph /  3.7 km/h 74 % 0.00 in /  0 mm 0.0 W/m2 CLR
19:00 0.3 °F /  -17.6 °C -6.0 °F /  -21.1 °C 30.83 in /  1043.9 hPa WNW 2.3 mph /  3.7 km/h 2.3 mph /  3.7 km/h 74 % 0.00 in /  0 mm 0.0 W/m2 CLR
19:05 0.2 °F /  -17.7 °C -6.1 °F /  -21.2 °C 30.83 in /  1043.9 hPa WNW 2.3 mph /  3.7 km/h 2.3 mph /  3.7 km/h 74 % 0.00 in /  0 mm 0.0 W/m2 CLR
19:06 0.2 °F /  -17.7 °C -6.1 °F /  -21.2 °C 30.83 in /  1043.9 hPa WNW 3.5 mph /  5.6 km/h 3.5 mph /  5.6 km/h 74 % 0.00 in /  0 mm 0.0 W/m2 CLR
19:10 0.1 °F /  -17.7 °C -5.9 °F /  -21.1 °C 30.82 in /  1043.6 hPa WNW 2.3 mph /  3.7 km/h 2.3 mph /  3.7 km/h 75 % 0.00 in /  0 mm 0.0 W/m2 CLR
19:11 0.1 °F /  -17.7 °C -5.9 °F /  -21.1 °C 30.82 in /  1043.6 hPa WNW 2.3 mph /  3.7 km/h   75 % 0.00 in /  0 mm 0.0 W/m2 CLR
19:16 0.1 °F /  -17.7 °C -5.9 °F /  -21.1 °C 30.83 in /  1043.9 hPa Calm     75 % 0.00 in /  0 mm 0.0 W/m2 CLR
19:21 0.0 °F /  -17.8 °C -6.0 °F /  -21.1 °C 30.83 in /  1043.9 hPa WNW 1.2 mph /  1.9 km/h   75 % 0.00 in /  0 mm 0.0 W/m2 CLR
19:26 -0.1 °F /  -17.8 °C -6.1 °F /  -21.2 °C 30.82 in /  1043.6 hPa WNW 2.3 mph /  3.7 km/h 2.3 mph /  3.7 km/h 75 % 0.00 in /  0 mm 0.0 W/m2 CLR
19:31 -0.3 °F /  -17.9 °C -6.3 °F /  -21.3 °C 30.82 in /  1043.6 hPa WNW 3.5 mph /  5.6 km/h 3.5 mph /  5.6 km/h 75 % 0.00 in /  0 mm 0.0 W/m2 CLR
19:33 -0.4 °F /  -18 °C -6.4 °F /  -21.3 °C 30.82 in /  1043.6 hPa WNW 3.5 mph /  5.6 km/h 3.5 mph /  5.6 km/h 75 % 0.00 in /  0 mm 0.0 W/m2 CLR
19:37 -0.5 °F /  -18.1 °C -6.5 °F /  -21.4 °C 30.81 in /  1043.2 hPa WNW 1.2 mph /  1.9 km/h   75 % 0.00 in /  0 mm 0.0 W/m2 CLR
19:40 -0.6 °F /  -18.1 °C -6.4 °F /  -21.3 °C 30.81 in /  1043.2 hPa Calm     76 % 0.00 in /  0 mm 0.0 W/m2 CLR
19:45 -0.8 °F /  -18.2 °C -6.8 °F /  -21.6 °C 30.81 in /  1043.2 hPa Calm     75 % 0.00 in /  0 mm 0.0 W/m2 CLR
19:50 -1.4 °F /  -18.6 °C -8.0 °F /  -22.2 °C 30.81 in /  1043.2 hPa Calm     73 % 0.00 in /  0 mm 0.0 W/m2 CLR
19:55 -2.4 °F /  -19.1 °C -9.2 °F /  -22.9 °C 30.81 in /  1043.2 hPa Calm     72 % 0.00 in /  0 mm 0.0 W/m2 CLR
19:56 -2.5 °F /  -19.2 °C -9.3 °F /  -22.9 °C 30.81 in /  1043.2 hPa Calm     72 % 0.00 in /  0 mm 0.0 W/m2 CLR
19:58 -2.8 °F /  -19.3 °C -9.6 °F /  -23.1 °C 30.81 in /  1043.2 hPa Calm     72 % 0.00 in /  0 mm 0.0 W/m2 CLR
20:01 -3.1 °F /  -19.5 °C -9.9 °F /  -23.3 °C 30.80 in /  1042.9 hPa Calm     72 % 0.00 in /  0 mm 0.0 W/m2 CLR
20:05 -3.3 °F /  -19.6 °C -9.8 °F /  -23.2 °C 30.80 in /  1042.9 hPa Calm     73 % 0.00 in /  0 mm 0.0 W/m2 CLR
20:07 -3.5 °F /  -19.7 °C -10.0 °F /  -23.3 °C 30.80 in /  1042.9 hPa Calm     73 % 0.00 in /  0 mm 0.0 W/m2 CLR
20:12 -3.7 °F /  -19.8 °C -10.2 °F /  -23.4 °C 30.80 in /  1042.9 hPa Calm     73 % 0.00 in /  0 mm 0.0 W/m2 CLR
20:16 -4.0 °F /  -20 °C -10.5 °F /  -23.6 °C 30.80 in /  1042.9 hPa Calm     73 % 0.00 in /  0 mm 0.0 W/m2 CLR
20:17 -4.1 °F /  -20.1 °C -10.6 °F /  -23.7 °C 30.80 in /  1042.9 hPa Calm     73 % 0.00 in /  0 mm 0.0 W/m2 CLR
20:21 -4.4 °F /  -20.2 °C -10.9 °F /  -23.8 °C 30.79 in /  1042.5 hPa Calm     73 % 0.00 in /  0 mm 0.0 W/m2 CLR
20:24 -4.8 °F /  -20.4 °C -11.3 °F /  -24.1 °C 30.79 in /  1042.5 hPa Calm     73 % 0.00 in /  0 mm 0.0 W/m2 CLR
20:29 -5.0 °F /  -20.6 °C -10.9 °F /  -23.8 °C 30.79 in /  1042.5 hPa Calm     75 % 0.00 in /  0 mm 0.0 W/m2 CLR
20:30 -5.0 °F /  -20.6 °C -10.6 °F /  -23.7 °C 30.79 in /  1042.5 hPa Calm     76 % 0.00 in /  0 mm 0.0 W/m2 CLR
20:33 -5.0 °F /  -20.6 °C -10.6 °F /  -23.7 °C 30.79 in /  1042.5 hPa Calm     76 % 0.00 in /  0 mm 0.0 W/m2 CLR
20:37 -5.4 °F /  -20.8 °C -11.0 °F /  -23.9 °C 30.79 in /  1042.5 hPa Calm     76 % 0.00 in /  0 mm 0.0 W/m2 CLR
20:40 -5.5 °F /  -20.8 °C -11.1 °F /  -23.9 °C 30.79 in /  1042.5 hPa Calm     76 % 0.00 in /  0 mm 0.0 W/m2 CLR
20:44 -5.4 °F /  -20.8 °C -10.8 °F /  -23.8 °C 30.79 in /  1042.5 hPa Calm     77 % 0.00 in /  0 mm 0.0 W/m2 CLR
20:46 -5.3 °F /  -20.7 °C -10.4 °F /  -23.6 °C 30.79 in /  1042.5 hPa Calm     78 % 0.00 in /  0 mm 0.0 W/m2 CLR
20:50 -5.1 °F /  -20.6 °C -10.2 °F /  -23.4 °C 30.80 in /  1042.9 hPa Calm     78 % 0.00 in /  0 mm 0.0 W/m2 CLR
20:56 -4.5 °F /  -20.3 °C -9.1 °F /  -22.8 °C 30.80 in /  1042.9 hPa Calm     80 % 0.00 in /  0 mm 0.0 W/m2 CLR
20:57 -4.4 °F /  -20.2 °C -9.0 °F /  -22.8 °C 30.80 in /  1042.9 hPa Calm     80 % 0.00 in /  0 mm 0.0 W/m2 CLR
21:02 -3.7 °F /  -19.8 °C -8.1 °F /  -22.3 °C 30.80 in /  1042.9 hPa Calm     81 % 0.00 in /  0 mm 0.0 W/m2 CLR
21:06 -3.6 °F /  -19.8 °C -8.0 °F /  -22.2 °C 30.80 in /  1042.9 hPa Calm     81 % 0.00 in /  0 mm 0.0 W/m2 CLR
21:07 -3.6 °F /  -19.8 °C -8.0 °F /  -22.2 °C 30.80 in /  1042.9 hPa Calm     81 % 0.00 in /  0 mm 0.0 W/m2 CLR
21:13 -4.0 °F /  -20 °C -8.9 °F /  -22.7 °C 30.80 in /  1042.9 hPa Calm     79 % 0.00 in /  0 mm 0.0 W/m2 CLR
21:18 -4.1 °F /  -20.1 °C -8.7 °F /  -22.6 °C 30.81 in /  1043.2 hPa Calm     80 % 0.00 in /  0 mm 0.0 W/m2 CLR
21:20 -4.0 °F /  -20 °C -8.6 °F /  -22.6 °C 30.81 in /  1043.2 hPa Calm     80 % 0.00 in /  0 mm 0.0 W/m2 CLR
21:22 -3.8 °F /  -19.9 °C -8.2 °F /  -22.3 °C 30.81 in /  1043.2 hPa Calm     81 % 0.00 in /  0 mm 0.0 W/m2 CLR
21:26 -3.5 °F /  -19.7 °C -7.9 °F /  -22.2 °C 30.81 in /  1043.2 hPa Calm     81 % 0.00 in /  0 mm 0.0 W/m2 CLR
21:27 -3.4 °F /  -19.7 °C -7.5 °F /  -21.9 °C 30.81 in /  1043.2 hPa Calm     82 % 0.00 in /  0 mm 0.0 W/m2 CLR
21:31 -3.2 °F /  -19.6 °C -7.3 °F /  -21.8 °C 30.81 in /  1043.2 hPa Calm     82 % 0.00 in /  0 mm 0.0 W/m2 CLR
21:36 -3.1 °F /  -19.5 °C -7.2 °F /  -21.8 °C 30.81 in /  1043.2 hPa Calm     82 % 0.00 in /  0 mm 0.0 W/m2 CLR
21:41 -3.0 °F /  -19.4 °C -7.1 °F /  -21.7 °C 30.82 in /  1043.6 hPa Calm     82 % 0.00 in /  0 mm 0.0 W/m2 CLR
21:42 -2.9 °F /  -19.4 °C -7.0 °F /  -21.7 °C 30.82 in /  1043.6 hPa Calm     82 % 0.00 in /  0 mm 0.0 W/m2 CLR
21:46 -2.7 °F /  -19.3 °C -6.8 °F /  -21.6 °C 30.82 in /  1043.6 hPa Calm     82 % 0.00 in /  0 mm 0.0 W/m2 CLR
21:50 -2.4 °F /  -19.1 °C -6.3 °F /  -21.3 °C 30.81 in /  1043.2 hPa Calm     83 % 0.00 in /  0 mm 0.0 W/m2 CLR
21:51 -2.3 °F /  -19.1 °C -6.2 °F /  -21.2 °C 30.81 in /  1043.2 hPa Calm     83 % 0.00 in /  0 mm 0.0 W/m2 CLR
21:56 -2.0 °F /  -18.9 °C -5.9 °F /  -21.1 °C 30.81 in /  1043.2 hPa Calm     83 % 0.00 in /  0 mm 0.0 W/m2 CLR
21:57 -2.1 °F /  -18.9 °C -6.0 °F /  -21.1 °C 30.81 in /  1043.2 hPa Calm     83 % 0.00 in /  0 mm 0.0 W/m2 CLR
22:02 -1.8 °F /  -18.8 °C -5.7 °F /  -20.9 °C 30.81 in /  1043.2 hPa Calm     83 % 0.00 in /  0 mm 0.0 W/m2 CLR
22:05 -1.6 °F /  -18.7 °C -5.5 °F /  -20.8 °C 30.81 in /  1043.2 hPa Calm     83 % 0.00 in /  0 mm 0.0 W/m2 CLR
22:08 -1.6 °F /  -18.7 °C -5.5 °F /  -20.8 °C 30.81 in /  1043.2 hPa Calm     83 % 0.00 in /  0 mm 0.0 W/m2 CLR
22:13 -2.1 °F /  -18.9 °C -6.5 °F /  -21.4 °C 30.80 in /  1042.9 hPa Calm     81 % 0.00 in /  0 mm 0.0 W/m2 CLR
22:14 -2.2 °F /  -19 °C -6.6 °F /  -21.4 °C 30.80 in /  1042.9 hPa Calm     81 % 0.00 in /  0 mm 0.0 W/m2 CLR
22:17 -2.4 °F /  -19.1 °C -7.1 °F /  -21.7 °C 30.80 in /  1042.9 hPa Calm     80 % 0.00 in /  0 mm 0.0 W/m2 CLR
22:20 -2.6 °F /  -19.2 °C -7.2 °F /  -21.8 °C 30.80 in /  1042.9 hPa Calm     80 % 0.00 in /  0 mm 0.0 W/m2 CLR
22:22 -2.8 °F /  -19.3 °C -7.4 °F /  -21.9 °C 30.80 in /  1042.9 hPa Calm     80 % 0.00 in /  0 mm 0.0 W/m2 CLR
22:23 -2.8 °F /  -19.3 °C -7.7 °F /  -22.1 °C 30.79 in /  1042.5 hPa Calm     79 % 0.00 in /  0 mm 0.0 W/m2 CLR
22:27 -3.1 °F /  -19.5 °C -8.0 °F /  -22.2 °C 30.79 in /  1042.5 hPa Calm     79 % 0.00 in /  0 mm 0.0 W/m2 CLR
22:30 -3.2 °F /  -19.6 °C -8.1 °F /  -22.3 °C 30.79 in /  1042.5 hPa Calm     79 % 0.00 in /  0 mm 0.0 W/m2 CLR
22:32 -3.3 °F /  -19.6 °C -8.2 °F /  -22.3 °C 30.79 in /  1042.5 hPa Calm     79 % 0.00 in /  0 mm 0.0 W/m2 CLR
22:37 -3.5 °F /  -19.7 °C -8.4 °F /  -22.4 °C 30.79 in /  1042.5 hPa Calm     79 % 0.00 in /  0 mm 0.0 W/m2 CLR
22:42 -3.6 °F /  -19.8 °C -8.7 °F /  -22.6 °C 30.80 in /  1042.9 hPa Calm     78 % 0.00 in /  0 mm 0.0 W/m2 CLR
22:43 -3.6 °F /  -19.8 °C -8.5 °F /  -22.5 °C 30.80 in /  1042.9 hPa Calm     79 % 0.00 in /  0 mm 0.0 W/m2 CLR
22:48 -3.6 °F /  -19.8 °C -8.5 °F /  -22.5 °C 30.81 in /  1043.2 hPa Calm     79 % 0.00 in /  0 mm 0.0 W/m2 CLR
22:53 -3.1 °F /  -19.5 °C -7.5 °F /  -21.9 °C 30.81 in /  1043.2 hPa Calm     81 % 0.00 in /  0 mm 0.0 W/m2 CLR
22:58 -2.4 °F /  -19.1 °C -6.3 °F /  -21.3 °C 30.81 in /  1043.2 hPa Calm     83 % 0.00 in /  0 mm 0.0 W/m2 CLR
22:59 -2.3 °F /  -19.1 °C -6.2 °F /  -21.2 °C 30.82 in /  1043.6 hPa Calm     83 % 0.00 in /  0 mm 0.0 W/m2 CLR
23:04 -1.7 °F /  -18.7 °C -5.6 °F /  -20.9 °C 30.82 in /  1043.6 hPa WNW 2.3 mph /  3.7 km/h 2.3 mph /  3.7 km/h 83 % 0.00 in /  0 mm 0.0 W/m2 CLR
23:07 -1.5 °F /  -18.6 °C -5.4 °F /  -20.8 °C 30.82 in /  1043.6 hPa WNW 1.2 mph /  1.9 km/h 1.2 mph /  1.9 km/h 83 % 0.00 in /  0 mm 0.0 W/m2 CLR
23:12 -1.3 °F /  -18.5 °C -5.5 °F /  -20.8 °C 30.82 in /  1043.6 hPa WNW 3.5 mph /  5.6 km/h 3.5 mph /  5.6 km/h 82 % 0.00 in /  0 mm 0.0 W/m2 CLR
23:17 -1.2 °F /  -18.4 °C -5.4 °F /  -20.8 °C 30.82 in /  1043.6 hPa Calm     82 % 0.00 in /  0 mm 0.0 W/m2 CLR
23:21 -1.1 °F /  -18.4 °C -5.3 °F /  -20.7 °C 30.81 in /  1043.2 hPa WNW 1.2 mph /  1.9 km/h 1.2 mph /  1.9 km/h 82 % 0.00 in /  0 mm 0.0 W/m2 CLR
23:23 -1.1 °F /  -18.4 °C -5.3 °F /  -20.7 °C 30.81 in /  1043.2 hPa Calm     82 % 0.00 in /  0 mm 0.0 W/m2 CLR
23:27 -1.1 °F /  -18.4 °C -5.5 °F /  -20.8 °C 30.81 in /  1043.2 hPa Calm     81 % 0.00 in /  0 mm 0.0 W/m2 CLR
23:28 -1.1 °F /  -18.4 °C -5.5 °F /  -20.8 °C 30.80 in /  1042.9 hPa Calm     81 % 0.00 in /  0 mm 0.0 W/m2 CLR
23:32 -1.1 °F /  -18.4 °C -5.5 °F /  -20.8 °C 30.80 in /  1042.9 hPa Calm     81 % 0.00 in /  0 mm 0.0 W/m2 CLR
23:36 -1.2 °F /  -18.4 °C -5.6 °F /  -20.9 °C 30.80 in /  1042.9 hPa Calm     81 % 0.00 in /  0 mm 0.0 W/m2 CLR
23:40 -1.2 °F /  -18.4 °C -5.6 °F /  -20.9 °C 30.80 in /  1042.9 hPa Calm     81 % 0.00 in /  0 mm 0.0 W/m2 CLR
23:43 -1.2 °F /  -18.4 °C -5.6 °F /  -20.9 °C 30.80 in /  1042.9 hPa WNW 1.2 mph /  1.9 km/h   81 % 0.00 in /  0 mm 0.0 W/m2 CLR
23:48 -1.1 °F /  -18.4 °C -5.5 °F /  -20.8 °C 30.80 in /  1042.9 hPa Calm     81 % 0.00 in /  0 mm 0.0 W/m2 CLR
23:53 -1.1 °F /  -18.4 °C -5.5 °F /  -20.8 °C 30.80 in /  1042.9 hPa Calm     81 % 0.00 in /  0 mm 0.0 W/m2 CLR
23:54 -1.1 °F /  -18.4 °C -5.5 °F /  -20.8 °C 30.80 in /  1042.9 hPa Calm     81 % 0.00 in /  0 mm 0.0 W/m2 CLR
23:58 -1.1 °F /  -18.4 °C -5.5 °F /  -20.8 °C 30.80 in /  1042.9 hPa WNW 1.2 mph /  1.9 km/h 1.2 mph /  1.9 km/h 81 % 0.00 in /  0 mm 0.0 W/m2 CLR
23:59 -1.0 °F /  -18.3 °C -5.4 °F /  -20.8 °C 30.80 in /  1042.9 hPa WNW 1.2 mph /  1.9 km/h 1.2 mph /  1.9 km/h 81 % 0.00 in /  0 mm 0.0 W/m2 CLR
Bourbonnais, Illinois, USA
Compliments of Weather Underground - 4.5 mb